<?xml version="1.0" encoding="UTF-8" standalone="no" ?>
<gpx xmlns="http://www.topografix.com/GPX/1/1" xmlns:xsi="http://www.w3.org/2001/XMLSchema-instance" xsi:schemaLocation="http://www.topografix.com/GPX/1/1 http://www.topografix.com/GPX/1/1/gpx.xsd" version="1.1" creator="VisuGPX - https://www.visugpx.com">
  <metadata>
    <name>Tracé 24 août 2021 1:43:20 PM</name>
    <desc><![CDATA[Dent de Moirans depuis le Golf de Charmeil.
Rando difficile avec du dénivelée et du portage du vélo.
Passages très techniques en descente ou il est conseillé de descendre du vélo pour les grosses marches ou passage pentu.
Vue splendide au sommet et à la table d'orientation]]></desc>
  </metadata>
  <trk>
    <name><![CDATA[Tracé 24 août 2021 1:43:20 PM]]></name>
    <extensions>
      <line xmlns="http://www.topografix.com/GPX/gpx_style/0/2">
        <color>0000FF</color>
        <width>4</width>
      </line>
    </extensions>
    <trkseg>
      <trkpt lat="45.28737" lon="5.55653">
        <ele>187.5</ele>
        <time>2021-08-24T11:43:20Z</time>
      </trkpt>
      <trkpt lat="45.28695" lon="5.55698">
        <ele>187.8</ele>
      </trkpt>
      <trkpt lat="45.28656" lon="5.5574">
        <ele>188.6</ele>
      </trkpt>
      <trkpt lat="45.28637" lon="5.55761">
        <ele>187.7</ele>
      </trkpt>
      <trkpt lat="45.28595" lon="5.5581">
        <ele>186.1</ele>
        <time>2021-08-24T11:43:20Z</time>
      </trkpt>
      <trkpt lat="45.28546" lon="5.55859">
        <ele>186.1</ele>
      </trkpt>
      <trkpt lat="45.28516" lon="5.55898">
        <ele>186.6</ele>
        <time>2021-08-24T11:44:31Z</time>
      </trkpt>
      <trkpt lat="45.28414" lon="5.56017">
        <ele>188</ele>
        <time>2021-08-24T11:45:38Z</time>
      </trkpt>
      <trkpt lat="45.28368" lon="5.55906">
        <ele>188</ele>
        <time>2021-08-24T11:45:43Z</time>
      </trkpt>
      <trkpt lat="45.28343" lon="5.5585">
        <ele>188.6</ele>
        <time>2021-08-24T11:45:47Z</time>
      </trkpt>
      <trkpt lat="45.28276" lon="5.55689">
        <ele>199.5</ele>
        <time>2021-08-24T11:45:52Z</time>
      </trkpt>
      <trkpt lat="45.28263" lon="5.55673">
        <ele>201.1</ele>
        <time>2021-08-24T11:45:56Z</time>
      </trkpt>
      <trkpt lat="45.28264" lon="5.55648">
        <ele>204.7</ele>
      </trkpt>
      <trkpt lat="45.28286" lon="5.55586">
        <ele>211.7</ele>
      </trkpt>
      <trkpt lat="45.28225" lon="5.55594">
        <ele>215.7</ele>
      </trkpt>
      <trkpt lat="45.28129" lon="5.55532">
        <ele>232.4</ele>
      </trkpt>
      <trkpt lat="45.28081" lon="5.55532">
        <ele>230.6</ele>
      </trkpt>
      <trkpt lat="45.28035" lon="5.55524">
        <ele>230.6</ele>
      </trkpt>
      <trkpt lat="45.27936" lon="5.55248">
        <ele>269.3</ele>
      </trkpt>
      <trkpt lat="45.27812" lon="5.55005">
        <ele>272</ele>
      </trkpt>
      <trkpt lat="45.27795" lon="5.54981">
        <ele>277.6</ele>
      </trkpt>
      <trkpt lat="45.27772" lon="5.5496">
        <ele>273.9</ele>
      </trkpt>
      <trkpt lat="45.27742" lon="5.54926">
        <ele>274.4</ele>
      </trkpt>
      <trkpt lat="45.27719" lon="5.54873">
        <ele>278</ele>
      </trkpt>
      <trkpt lat="45.27691" lon="5.54842">
        <ele>273.8</ele>
      </trkpt>
      <trkpt lat="45.27686" lon="5.54904">
        <ele>275.9</ele>
        <time>2021-08-24T12:03:03Z</time>
      </trkpt>
      <trkpt lat="45.27669" lon="5.54956">
        <ele>279.2</ele>
        <time>2021-08-24T12:03:08Z</time>
      </trkpt>
      <trkpt lat="45.27643" lon="5.54993">
        <ele>282.7</ele>
        <time>2021-08-24T12:03:12Z</time>
      </trkpt>
      <trkpt lat="45.27618" lon="5.55016">
        <ele>266.92510131912</ele>
        <time>2021-08-24T12:03:16Z</time>
      </trkpt>
      <trkpt lat="45.27582" lon="5.55029">
        <ele>289.3</ele>
        <time>2021-08-24T12:03:21Z</time>
      </trkpt>
      <trkpt lat="45.27562" lon="5.55036">
        <ele>310.5</ele>
      </trkpt>
      <trkpt lat="45.27543" lon="5.55053">
        <ele>271.92015607333</ele>
        <time>2021-08-24T12:03:26Z</time>
      </trkpt>
      <trkpt lat="45.27525" lon="5.55085">
        <ele>302.3</ele>
        <time>2021-08-24T12:03:30Z</time>
      </trkpt>
      <trkpt lat="45.27521" lon="5.55103">
        <ele>341</ele>
      </trkpt>
      <trkpt lat="45.27528" lon="5.55119">
        <ele>278.91702518589</ele>
        <time>2021-08-24T12:03:34Z</time>
      </trkpt>
      <trkpt lat="45.27557" lon="5.55134">
        <ele>282.91791047338</ele>
        <time>2021-08-24T12:03:38Z</time>
      </trkpt>
      <trkpt lat="45.27565" lon="5.55142">
        <ele>327.5</ele>
      </trkpt>
      <trkpt lat="45.27565" lon="5.55158">
        <ele>306.2</ele>
        <time>2021-08-24T12:03:43Z</time>
      </trkpt>
      <trkpt lat="45.27551" lon="5.55199">
        <ele>318.1</ele>
        <time>2021-08-24T12:03:48Z</time>
      </trkpt>
      <trkpt lat="45.27554" lon="5.55233">
        <ele>324.8</ele>
        <time>2021-08-24T12:03:52Z</time>
      </trkpt>
      <trkpt lat="45.27568" lon="5.55243">
        <ele>356.4</ele>
      </trkpt>
      <trkpt lat="45.27577" lon="5.55263">
        <ele>322.8</ele>
        <time>2021-08-24T12:03:56Z</time>
      </trkpt>
      <trkpt lat="45.2759" lon="5.55326">
        <ele>331.9</ele>
        <time>2021-08-24T12:04:01Z</time>
      </trkpt>
      <trkpt lat="45.2762" lon="5.55368">
        <ele>331.7</ele>
        <time>2021-08-24T12:04:06Z</time>
      </trkpt>
      <trkpt lat="45.27628" lon="5.55388">
        <ele>381.8</ele>
      </trkpt>
      <trkpt lat="45.27633" lon="5.5543">
        <ele>343.7</ele>
        <time>2021-08-24T12:04:10Z</time>
      </trkpt>
      <trkpt lat="45.27636" lon="5.55449">
        <ele>401</ele>
      </trkpt>
      <trkpt lat="45.2765" lon="5.55468">
        <ele>348.5</ele>
        <time>2021-08-24T12:04:15Z</time>
      </trkpt>
      <trkpt lat="45.27676" lon="5.55501">
        <ele>344.9</ele>
        <time>2021-08-24T12:04:19Z</time>
      </trkpt>
      <trkpt lat="45.27709" lon="5.55575">
        <ele>359.3</ele>
        <time>2021-08-24T12:04:23Z</time>
      </trkpt>
      <trkpt lat="45.27755" lon="5.55639">
        <ele>358.8</ele>
        <time>2021-08-24T12:04:28Z</time>
      </trkpt>
      <trkpt lat="45.27827" lon="5.55749">
        <ele>369.2</ele>
        <time>2021-08-24T12:04:32Z</time>
      </trkpt>
      <trkpt lat="45.27833" lon="5.55764">
        <ele>429.5</ele>
      </trkpt>
      <trkpt lat="45.27828" lon="5.55778">
        <ele>383.8</ele>
        <time>2021-08-24T12:05:05Z</time>
      </trkpt>
      <trkpt lat="45.27819" lon="5.55774">
        <ele>443.4</ele>
      </trkpt>
      <trkpt lat="45.27811" lon="5.55764">
        <ele>387.8</ele>
        <time>2021-08-24T12:05:10Z</time>
      </trkpt>
      <trkpt lat="45.27791" lon="5.55722">
        <ele>437.4</ele>
      </trkpt>
      <trkpt lat="45.27767" lon="5.55693">
        <ele>379.5</ele>
        <time>2021-08-24T12:05:15Z</time>
      </trkpt>
      <trkpt lat="45.27637" lon="5.55568">
        <ele>402.7</ele>
        <time>2021-08-24T12:05:19Z</time>
      </trkpt>
      <trkpt lat="45.27548" lon="5.55458">
        <ele>448.3</ele>
      </trkpt>
      <trkpt lat="45.27467" lon="5.55345">
        <ele>407</ele>
        <time>2021-08-24T12:05:24Z</time>
      </trkpt>
      <trkpt lat="45.27431" lon="5.55296">
        <ele>406.9</ele>
        <time>2021-08-24T12:05:28Z</time>
      </trkpt>
      <trkpt lat="45.27403" lon="5.5528">
        <ele>442.3</ele>
      </trkpt>
      <trkpt lat="45.27387" lon="5.55271">
        <ele>446.3</ele>
      </trkpt>
      <trkpt lat="45.27375" lon="5.5526">
        <ele>401.90458838419</ele>
        <time>2021-08-24T12:05:33Z</time>
      </trkpt>
      <trkpt lat="45.27361" lon="5.55237">
        <ele>451.7</ele>
      </trkpt>
      <trkpt lat="45.27345" lon="5.55224">
        <ele>424.7</ele>
        <time>2021-08-24T12:05:37Z</time>
      </trkpt>
      <trkpt lat="45.2733" lon="5.55196">
        <ele>430.1</ele>
      </trkpt>
      <trkpt lat="45.27322" lon="5.55168">
        <ele>431.9</ele>
        <time>2021-08-24T12:05:42Z</time>
      </trkpt>
      <trkpt lat="45.27318" lon="5.55145">
        <ele>466.3</ele>
        <time>2021-08-24T12:05:47Z</time>
      </trkpt>
      <trkpt lat="45.27314" lon="5.55132">
        <ele>431.1</ele>
        <time>2021-08-24T12:05:47Z</time>
      </trkpt>
      <trkpt lat="45.27307" lon="5.55129">
        <ele>434</ele>
      </trkpt>
      <trkpt lat="45.273" lon="5.55134">
        <ele>437.8</ele>
        <time>2021-08-24T12:08:32Z</time>
      </trkpt>
      <trkpt lat="45.273" lon="5.55153">
        <ele>439.6</ele>
      </trkpt>
      <trkpt lat="45.273" lon="5.55153">
        <ele>473.3</ele>
        <time>2021-08-25T07:39:03.000Z</time>
      </trkpt>
      <trkpt lat="45.27307" lon="5.55172">
        <ele>471</ele>
        <time>2021-08-25T07:39:04.167Z</time>
      </trkpt>
      <trkpt lat="45.27301" lon="5.55201">
        <ele>473.6</ele>
        <time>2021-08-25T07:39:14.119Z</time>
      </trkpt>
      <trkpt lat="45.27295" lon="5.55223">
        <ele>476.7</ele>
        <time>2021-08-25T07:39:23.160Z</time>
      </trkpt>
      <trkpt lat="45.27291" lon="5.55247">
        <ele>478.9</ele>
        <time>2021-08-25T07:39:31.653Z</time>
      </trkpt>
      <trkpt lat="45.27292" lon="5.55274">
        <ele>481.2</ele>
        <time>2021-08-25T07:39:40.459Z</time>
      </trkpt>
      <trkpt lat="45.27309" lon="5.5533">
        <ele>482.3</ele>
        <time>2021-08-25T07:39:48.333Z</time>
      </trkpt>
      <trkpt lat="45.27358" lon="5.55408">
        <ele>480</ele>
        <time>2021-08-25T07:39:55.568Z</time>
      </trkpt>
      <trkpt lat="45.27391" lon="5.55465">
        <ele>483.9</ele>
        <time>2021-08-25T07:40:10.960Z</time>
      </trkpt>
      <trkpt lat="45.2744" lon="5.55516">
        <ele>486.8</ele>
        <time>2021-08-25T07:40:25.743Z</time>
      </trkpt>
      <trkpt lat="45.27478" lon="5.55563">
        <ele>491.6</ele>
        <time>2021-08-25T07:40:43.468Z</time>
      </trkpt>
      <trkpt lat="45.27506" lon="5.55616">
        <ele>503.3</ele>
        <time>2021-08-25T07:41:09.107Z</time>
      </trkpt>
      <trkpt lat="45.27557" lon="5.5567">
        <ele>511.3</ele>
        <time>2021-08-25T07:41:40.335Z</time>
      </trkpt>
      <trkpt lat="45.27614" lon="5.55726">
        <ele>514.5</ele>
        <time>2021-08-25T07:41:56.999Z</time>
      </trkpt>
      <trkpt lat="45.27638" lon="5.55767">
        <ele>518.8</ele>
        <time>2021-08-25T07:42:13.103Z</time>
      </trkpt>
      <trkpt lat="45.2765" lon="5.55821">
        <ele>526.2</ele>
        <time>2021-08-25T07:42:35.015Z</time>
      </trkpt>
      <trkpt lat="45.27677" lon="5.55872">
        <ele>526.6</ele>
        <time>2021-08-25T07:42:41.906Z</time>
      </trkpt>
      <trkpt lat="45.27685" lon="5.55902">
        <ele>528.5</ele>
        <time>2021-08-25T07:42:49.165Z</time>
      </trkpt>
      <trkpt lat="45.27692" lon="5.55918">
        <ele>528.9</ele>
        <time>2021-08-25T07:42:51.752Z</time>
      </trkpt>
      <trkpt lat="45.27702" lon="5.55929">
        <ele>527.4</ele>
        <time>2021-08-25T07:42:52.725Z</time>
      </trkpt>
      <trkpt lat="45.27719" lon="5.55951">
        <ele>526.2</ele>
        <time>2021-08-25T07:42:54.568Z</time>
      </trkpt>
      <trkpt lat="45.2773" lon="5.55982">
        <ele>528.4</ele>
        <time>2021-08-25T07:43:02.781Z</time>
      </trkpt>
      <trkpt lat="45.27754" lon="5.56051">
        <ele>533.5</ele>
        <time>2021-08-25T07:43:21.623Z</time>
      </trkpt>
      <trkpt lat="45.27774" lon="5.5612">
        <ele>538.3</ele>
        <time>2021-08-25T07:43:39.454Z</time>
      </trkpt>
      <trkpt lat="45.27779" lon="5.56165">
        <ele>543.2</ele>
        <time>2021-08-25T07:43:56.941Z</time>
      </trkpt>
      <trkpt lat="45.27768" lon="5.56172">
        <ele>547</ele>
        <time>2021-08-25T07:44:03.393Z</time>
      </trkpt>
      <trkpt lat="45.27753" lon="5.56168">
        <ele>549.6</ele>
        <time>2021-08-25T07:44:11.799Z</time>
      </trkpt>
      <trkpt lat="45.27751" lon="5.56144">
        <ele>546.9</ele>
        <time>2021-08-25T07:44:13.108Z</time>
      </trkpt>
      <trkpt lat="45.27739" lon="5.56125">
        <ele>547.8</ele>
        <time>2021-08-25T07:44:17.511Z</time>
      </trkpt>
      <trkpt lat="45.27717" lon="5.56094">
        <ele>549.6</ele>
        <time>2021-08-25T07:44:25.606Z</time>
      </trkpt>
      <trkpt lat="45.27693" lon="5.56067">
        <ele>551.7</ele>
        <time>2021-08-25T07:44:34.240Z</time>
      </trkpt>
      <trkpt lat="45.27673" lon="5.5605">
        <ele>553.7</ele>
        <time>2021-08-25T07:44:41.794Z</time>
      </trkpt>
      <trkpt lat="45.27653" lon="5.56042">
        <ele>556.9</ele>
        <time>2021-08-25T07:44:52.948Z</time>
      </trkpt>
      <trkpt lat="45.27611" lon="5.56022">
        <ele>563.8</ele>
        <time>2021-08-25T07:45:17.322Z</time>
      </trkpt>
      <trkpt lat="45.27563" lon="5.55972">
        <ele>567.1</ele>
        <time>2021-08-25T07:45:32.667Z</time>
      </trkpt>
      <trkpt lat="45.27503" lon="5.55909">
        <ele>566.2</ele>
        <time>2021-08-25T07:45:41.681Z</time>
      </trkpt>
      <trkpt lat="45.27483" lon="5.55885">
        <ele>569.5</ele>
        <time>2021-08-25T07:45:54.669Z</time>
      </trkpt>
      <trkpt lat="45.2746" lon="5.55867">
        <ele>573.3</ele>
        <time>2021-08-25T07:46:09.242Z</time>
      </trkpt>
      <trkpt lat="45.27418" lon="5.55856">
        <ele>580.9</ele>
        <time>2021-08-25T07:46:32.322Z</time>
      </trkpt>
      <trkpt lat="45.27388" lon="5.55847">
        <ele>585</ele>
        <time>2021-08-25T07:46:49.024Z</time>
      </trkpt>
      <trkpt lat="45.27357" lon="5.55818">
        <ele>585.2</ele>
        <time>2021-08-25T07:46:54.559Z</time>
      </trkpt>
      <trkpt lat="45.27335" lon="5.55799">
        <ele>584.9</ele>
        <time>2021-08-25T07:46:57.692Z</time>
      </trkpt>
      <trkpt lat="45.27311" lon="5.55791">
        <ele>586.6</ele>
        <time>2021-08-25T07:47:04.732Z</time>
      </trkpt>
      <trkpt lat="45.27259" lon="5.55796">
        <ele>594.4</ele>
        <time>2021-08-25T07:47:32.810Z</time>
      </trkpt>
      <trkpt lat="45.27209" lon="5.55786">
        <ele>600.3</ele>
        <time>2021-08-25T07:47:55.079Z</time>
      </trkpt>
      <trkpt lat="45.27138" lon="5.55767">
        <ele>611.7</ele>
        <time>2021-08-25T07:48:34.531Z</time>
      </trkpt>
      <trkpt lat="45.27095" lon="5.55729">
        <ele>617.4</ele>
        <time>2021-08-25T07:48:55.720Z</time>
      </trkpt>
      <trkpt lat="45.27071" lon="5.55712">
        <ele>619.8</ele>
        <time>2021-08-25T07:49:04.654Z</time>
      </trkpt>
      <trkpt lat="45.27056" lon="5.55703">
        <ele>621.1</ele>
        <time>2021-08-25T07:49:09.677Z</time>
      </trkpt>
      <trkpt lat="45.27044" lon="5.55697">
        <ele>622.2</ele>
        <time>2021-08-25T07:49:13.790Z</time>
      </trkpt>
      <trkpt lat="45.27031" lon="5.55691">
        <ele>623.5</ele>
        <time>2021-08-25T07:49:18.606Z</time>
      </trkpt>
      <trkpt lat="45.27027" lon="5.55689">
        <ele>623.9</ele>
        <time>2021-08-25T07:49:20.095Z</time>
      </trkpt>
      <trkpt lat="45.27021" lon="5.55679">
        <ele>623.4</ele>
        <time>2021-08-25T07:49:20.780Z</time>
      </trkpt>
      <trkpt lat="45.27017" lon="5.55673">
        <ele>623.1</ele>
        <time>2021-08-25T07:49:21.288Z</time>
      </trkpt>
      <trkpt lat="45.27013" lon="5.55666">
        <ele>622.8</ele>
        <time>2021-08-25T07:49:21.767Z</time>
      </trkpt>
      <trkpt lat="45.27009" lon="5.55658">
        <ele>622.1</ele>
        <time>2021-08-25T07:49:22.323Z</time>
      </trkpt>
      <trkpt lat="45.27004" lon="5.55653">
        <ele>622.3</ele>
        <time>2021-08-25T07:49:23.595Z</time>
      </trkpt>
      <trkpt lat="45.26999" lon="5.55647">
        <ele>622</ele>
        <time>2021-08-25T07:49:24.103Z</time>
      </trkpt>
      <trkpt lat="45.26992" lon="5.55642">
        <ele>621.9</ele>
        <time>2021-08-25T07:49:25.064Z</time>
      </trkpt>
      <trkpt lat="45.26988" lon="5.55637">
        <ele>621.7</ele>
        <time>2021-08-25T07:49:25.558Z</time>
      </trkpt>
      <trkpt lat="45.26978" lon="5.5563">
        <ele>622</ele>
        <time>2021-08-25T07:49:27.695Z</time>
      </trkpt>
      <trkpt lat="45.26963" lon="5.5562">
        <ele>623.3</ele>
        <time>2021-08-25T07:49:32.697Z</time>
      </trkpt>
      <trkpt lat="45.26956" lon="5.55618">
        <ele>624.2</ele>
        <time>2021-08-25T07:49:36.282Z</time>
      </trkpt>
      <trkpt lat="45.26928" lon="5.55617">
        <ele>628.6</ele>
        <time>2021-08-25T07:49:51.747Z</time>
      </trkpt>
      <trkpt lat="45.26917" lon="5.55619">
        <ele>630.2</ele>
        <time>2021-08-25T07:49:57.756Z</time>
      </trkpt>
      <trkpt lat="45.26907" lon="5.5562">
        <ele>632.7</ele>
        <time>2021-08-25T07:50:03.560Z</time>
      </trkpt>
      <trkpt lat="45.26901" lon="5.55624">
        <ele>634</ele>
        <time>2021-08-25T07:50:07.160Z</time>
      </trkpt>
      <trkpt lat="45.26893" lon="5.55631">
        <ele>635.6</ele>
        <time>2021-08-25T07:50:12.024Z</time>
      </trkpt>
      <trkpt lat="45.26887" lon="5.55639">
        <ele>637</ele>
        <time>2021-08-25T07:50:16.545Z</time>
      </trkpt>
      <trkpt lat="45.26874" lon="5.55657">
        <ele>640.2</ele>
        <time>2021-08-25T07:50:26.311Z</time>
      </trkpt>
      <trkpt lat="45.26867" lon="5.5567">
        <ele>642.3</ele>
        <time>2021-08-25T07:50:32.750Z</time>
      </trkpt>
      <trkpt lat="45.26861" lon="5.55679">
        <ele>643.7</ele>
        <time>2021-08-25T07:50:37.423Z</time>
      </trkpt>
      <trkpt lat="45.26849" lon="5.55722">
        <ele>646</ele>
        <time>2021-08-25T07:50:46.711Z</time>
      </trkpt>
      <trkpt lat="45.26837" lon="5.55769">
        <ele>647</ele>
        <time>2021-08-25T07:50:53.464Z</time>
      </trkpt>
      <trkpt lat="45.26822" lon="5.55822">
        <ele>647.6</ele>
        <time>2021-08-25T07:51:00.033Z</time>
      </trkpt>
      <trkpt lat="45.26803" lon="5.55881">
        <ele>653</ele>
        <time>2021-08-25T07:51:20.430Z</time>
      </trkpt>
      <trkpt lat="45.26787" lon="5.55937">
        <ele>658.3</ele>
        <time>2021-08-25T07:51:40.939Z</time>
      </trkpt>
      <trkpt lat="45.26756" lon="5.56025">
        <ele>674.8</ele>
        <time>2021-08-25T07:52:18.549Z</time>
      </trkpt>
      <trkpt lat="45.2676" lon="5.56078">
        <ele>680.8</ele>
        <time>2021-08-25T07:52:39.286Z</time>
      </trkpt>
      <trkpt lat="45.26759" lon="5.5611">
        <ele>682.4</ele>
        <time>2021-08-25T07:52:45.772Z</time>
      </trkpt>
      <trkpt lat="45.26738" lon="5.56138">
        <ele>686.4</ele>
        <time>2021-08-25T07:53:01.082Z</time>
      </trkpt>
      <trkpt lat="45.26711" lon="5.56174">
        <ele>687.6</ele>
        <time>2021-08-25T07:53:08.611Z</time>
      </trkpt>
      <trkpt lat="45.26693" lon="5.56218">
        <ele>684.6</ele>
        <time>2021-08-25T07:53:11.381Z</time>
      </trkpt>
      <trkpt lat="45.26681" lon="5.56247">
        <ele>682</ele>
        <time>2021-08-25T07:53:13.205Z</time>
      </trkpt>
      <trkpt lat="45.26674" lon="5.56269">
        <ele>680.5</ele>
        <time>2021-08-25T07:53:14.576Z</time>
      </trkpt>
      <trkpt lat="45.26666" lon="5.5629">
        <ele>679.2</ele>
        <time>2021-08-25T07:53:15.855Z</time>
      </trkpt>
      <trkpt lat="45.26656" lon="5.56343">
        <ele>676</ele>
        <time>2021-08-25T07:53:18.864Z</time>
      </trkpt>
      <trkpt lat="45.26642" lon="5.56372">
        <ele>676</ele>
        <time>2021-08-25T07:53:22.362Z</time>
      </trkpt>
      <trkpt lat="45.26619" lon="5.56387">
        <ele>676.3</ele>
        <time>2021-08-25T07:53:26.434Z</time>
      </trkpt>
      <trkpt lat="45.26609" lon="5.56395">
        <ele>676.5</ele>
        <time>2021-08-25T07:53:28.373Z</time>
      </trkpt>
      <trkpt lat="45.26601" lon="5.56403">
        <ele>676.6</ele>
        <time>2021-08-25T07:53:29.939Z</time>
      </trkpt>
      <trkpt lat="45.26594" lon="5.56415">
        <ele>676.8</ele>
        <time>2021-08-25T07:53:31.804Z</time>
      </trkpt>
      <trkpt lat="45.26582" lon="5.56448">
        <ele>678.6</ele>
        <time>2021-08-25T07:53:39.179Z</time>
      </trkpt>
      <trkpt lat="45.26562" lon="5.56488">
        <ele>681.6</ele>
        <time>2021-08-25T07:53:50.412Z</time>
      </trkpt>
      <trkpt lat="45.26537" lon="5.56517">
        <ele>683</ele>
        <time>2021-08-25T07:53:58.015Z</time>
      </trkpt>
      <trkpt lat="45.26515" lon="5.56542">
        <ele>683.4</ele>
        <time>2021-08-25T07:54:02.569Z</time>
      </trkpt>
      <trkpt lat="45.26502" lon="5.56572">
        <ele>683.2</ele>
        <time>2021-08-25T07:54:05.758Z</time>
      </trkpt>
      <trkpt lat="45.2649" lon="5.56597">
        <ele>683.6</ele>
        <time>2021-08-25T07:54:09.453Z</time>
      </trkpt>
      <trkpt lat="45.26473" lon="5.56612">
        <ele>684.5</ele>
        <time>2021-08-25T07:54:14.283Z</time>
      </trkpt>
      <trkpt lat="45.26468" lon="5.5663">
        <ele>684.3</ele>
        <time>2021-08-25T07:54:15.848Z</time>
      </trkpt>
      <trkpt lat="45.26485" lon="5.56656">
        <ele>682.8</ele>
        <time>2021-08-25T07:54:17.726Z</time>
      </trkpt>
      <trkpt lat="45.265" lon="5.56688">
        <ele>682</ele>
        <time>2021-08-25T07:54:20.440Z</time>
      </trkpt>
      <trkpt lat="45.2649" lon="5.56716">
        <ele>682.4</ele>
        <time>2021-08-25T07:54:24.223Z</time>
      </trkpt>
      <trkpt lat="45.26476" lon="5.56737">
        <ele>682.9</ele>
        <time>2021-08-25T07:54:27.917Z</time>
      </trkpt>
      <trkpt lat="45.26463" lon="5.56759">
        <ele>683.9</ele>
        <time>2021-08-25T07:54:32.947Z</time>
      </trkpt>
      <trkpt lat="45.26454" lon="5.56779">
        <ele>685.3</ele>
        <time>2021-08-25T07:54:38.236Z</time>
      </trkpt>
      <trkpt lat="45.2645" lon="5.56789">
        <ele>686.1</ele>
        <time>2021-08-25T07:54:41.192Z</time>
      </trkpt>
      <trkpt lat="45.26443" lon="5.56798">
        <ele>686.7</ele>
        <time>2021-08-25T07:54:43.690Z</time>
      </trkpt>
      <trkpt lat="45.26427" lon="5.56814">
        <ele>687.9</ele>
        <time>2021-08-25T07:54:48.952Z</time>
      </trkpt>
      <trkpt lat="45.26412" lon="5.56826">
        <ele>688.7</ele>
        <time>2021-08-25T07:54:53.116Z</time>
      </trkpt>
      <trkpt lat="45.26403" lon="5.56855">
        <ele>689.2</ele>
        <time>2021-08-25T07:54:57.047Z</time>
      </trkpt>
      <trkpt lat="45.26391" lon="5.56883">
        <ele>689.7</ele>
        <time>2021-08-25T07:55:01.159Z</time>
      </trkpt>
      <trkpt lat="45.26386" lon="5.56895">
        <ele>689.9</ele>
        <time>2021-08-25T07:55:02.865Z</time>
      </trkpt>
      <trkpt lat="45.26373" lon="5.56903">
        <ele>690.4</ele>
        <time>2021-08-25T07:55:05.866Z</time>
      </trkpt>
      <trkpt lat="45.26358" lon="5.56906">
        <ele>690.9</ele>
        <time>2021-08-25T07:55:08.932Z</time>
      </trkpt>
      <trkpt lat="45.26335" lon="5.56922">
        <ele>691.9</ele>
        <time>2021-08-25T07:55:14.574Z</time>
      </trkpt>
      <trkpt lat="45.26299" lon="5.56951">
        <ele>693.5</ele>
        <time>2021-08-25T07:55:23.630Z</time>
      </trkpt>
      <trkpt lat="45.26277" lon="5.5697">
        <ele>694.1</ele>
        <time>2021-08-25T07:55:28.289Z</time>
      </trkpt>
      <trkpt lat="45.26252" lon="5.56967">
        <ele>695.1</ele>
        <time>2021-08-25T07:55:33.845Z</time>
      </trkpt>
      <trkpt lat="45.26235" lon="5.56977">
        <ele>697.4</ele>
        <time>2021-08-25T07:55:42.701Z</time>
      </trkpt>
      <trkpt lat="45.26233" lon="5.56978">
        <ele>697.7</ele>
        <time>2021-08-25T07:55:43.841Z</time>
      </trkpt>
      <trkpt lat="45.26196" lon="5.57">
        <ele>700.5</ele>
        <time>2021-08-25T07:55:55.207Z</time>
      </trkpt>
      <trkpt lat="45.26221" lon="5.57042">
        <ele>696.8</ele>
        <time>2021-08-25T07:55:58.235Z</time>
      </trkpt>
      <trkpt lat="45.26233" lon="5.57068">
        <ele>695.4</ele>
        <time>2021-08-25T07:55:59.838Z</time>
      </trkpt>
      <trkpt lat="45.26247" lon="5.57094">
        <ele>694.4</ele>
        <time>2021-08-25T07:56:01.788Z</time>
      </trkpt>
      <trkpt lat="45.26266" lon="5.5712">
        <ele>694.3</ele>
        <time>2021-08-25T07:56:05.463Z</time>
      </trkpt>
      <trkpt lat="45.26284" lon="5.57148">
        <ele>694.9</ele>
        <time>2021-08-25T07:56:10.160Z</time>
      </trkpt>
      <trkpt lat="45.26294" lon="5.57159">
        <ele>695.3</ele>
        <time>2021-08-25T07:56:12.662Z</time>
      </trkpt>
      <trkpt lat="45.26301" lon="5.57163">
        <ele>695.5</ele>
        <time>2021-08-25T07:56:14.046Z</time>
      </trkpt>
      <trkpt lat="45.26325" lon="5.57142">
        <ele>694.8</ele>
        <time>2021-08-25T07:56:17.079Z</time>
      </trkpt>
      <trkpt lat="45.26351" lon="5.57133">
        <ele>694.4</ele>
        <time>2021-08-25T07:56:20.137Z</time>
      </trkpt>
      <trkpt lat="45.26369" lon="5.57143">
        <ele>695</ele>
        <time>2021-08-25T07:56:24.008Z</time>
      </trkpt>
      <trkpt lat="45.26393" lon="5.57161">
        <ele>696.3</ele>
        <time>2021-08-25T07:56:30.570Z</time>
      </trkpt>
      <trkpt lat="45.26407" lon="5.57175">
        <ele>696</ele>
        <time>2021-08-25T07:56:32.556Z</time>
      </trkpt>
      <trkpt lat="45.26422" lon="5.57188">
        <ele>694.5</ele>
        <time>2021-08-25T07:56:33.956Z</time>
      </trkpt>
      <trkpt lat="45.26444" lon="5.57207">
        <ele>693.1</ele>
        <time>2021-08-25T07:56:35.982Z</time>
      </trkpt>
      <trkpt lat="45.26456" lon="5.57227">
        <ele>692</ele>
        <time>2021-08-25T07:56:37.386Z</time>
      </trkpt>
      <trkpt lat="45.26477" lon="5.5726">
        <ele>690.8</ele>
        <time>2021-08-25T07:56:40.237Z</time>
      </trkpt>
      <trkpt lat="45.26492" lon="5.57287">
        <ele>689.1</ele>
        <time>2021-08-25T07:56:42.121Z</time>
      </trkpt>
      <trkpt lat="45.26504" lon="5.57313">
        <ele>687.5</ele>
        <time>2021-08-25T07:56:43.846Z</time>
      </trkpt>
      <trkpt lat="45.26513" lon="5.57339">
        <ele>685.8</ele>
        <time>2021-08-25T07:56:45.424Z</time>
      </trkpt>
      <trkpt lat="45.26519" lon="5.5736">
        <ele>684.3</ele>
        <time>2021-08-25T07:56:46.663Z</time>
      </trkpt>
      <trkpt lat="45.26529" lon="5.57384">
        <ele>683.4</ele>
        <time>2021-08-25T07:56:48.325Z</time>
      </trkpt>
      <trkpt lat="45.26534" lon="5.57403">
        <ele>682.4</ele>
        <time>2021-08-25T07:56:49.432Z</time>
      </trkpt>
      <trkpt lat="45.26537" lon="5.5742">
        <ele>681.4</ele>
        <time>2021-08-25T07:56:50.397Z</time>
      </trkpt>
      <trkpt lat="45.26542" lon="5.5744">
        <ele>680.3</ele>
        <time>2021-08-25T07:56:51.605Z</time>
      </trkpt>
      <trkpt lat="45.2655" lon="5.5746">
        <ele>679.9</ele>
        <time>2021-08-25T07:56:53.224Z</time>
      </trkpt>
      <trkpt lat="45.26556" lon="5.57473">
        <ele>679.6</ele>
        <time>2021-08-25T07:56:54.339Z</time>
      </trkpt>
      <trkpt lat="45.26561" lon="5.57485">
        <ele>679.4</ele>
        <time>2021-08-25T07:56:55.441Z</time>
      </trkpt>
      <trkpt lat="45.26566" lon="5.57501">
        <ele>678.7</ele>
        <time>2021-08-25T07:56:56.371Z</time>
      </trkpt>
      <trkpt lat="45.26569" lon="5.57518">
        <ele>678.2</ele>
        <time>2021-08-25T07:56:57.523Z</time>
      </trkpt>
      <trkpt lat="45.26568" lon="5.57533">
        <ele>677.1</ele>
        <time>2021-08-25T07:56:58.330Z</time>
      </trkpt>
      <trkpt lat="45.26567" lon="5.57549">
        <ele>676</ele>
        <time>2021-08-25T07:56:59.212Z</time>
      </trkpt>
      <trkpt lat="45.26565" lon="5.57569">
        <ele>674.4</ele>
        <time>2021-08-25T07:57:00.332Z</time>
      </trkpt>
      <trkpt lat="45.26568" lon="5.57586">
        <ele>673.9</ele>
        <time>2021-08-25T07:57:01.369Z</time>
      </trkpt>
      <trkpt lat="45.26575" lon="5.57598">
        <ele>674.9</ele>
        <time>2021-08-25T07:57:05.094Z</time>
      </trkpt>
      <trkpt lat="45.26586" lon="5.57602">
        <ele>677</ele>
        <time>2021-08-25T07:57:11.293Z</time>
      </trkpt>
      <trkpt lat="45.2659" lon="5.5759">
        <ele>678.1</ele>
        <time>2021-08-25T07:57:15.473Z</time>
      </trkpt>
      <trkpt lat="45.26591" lon="5.57568">
        <ele>679.4</ele>
        <time>2021-08-25T07:57:20.430Z</time>
      </trkpt>
      <trkpt lat="45.26593" lon="5.5755">
        <ele>680.7</ele>
        <time>2021-08-25T07:57:25.215Z</time>
      </trkpt>
      <trkpt lat="45.266" lon="5.57526">
        <ele>682.9</ele>
        <time>2021-08-25T07:57:33.650Z</time>
      </trkpt>
      <trkpt lat="45.26618" lon="5.57511">
        <ele>685.8</ele>
        <time>2021-08-25T07:57:44.695Z</time>
      </trkpt>
      <trkpt lat="45.26634" lon="5.57498">
        <ele>688.1</ele>
        <time>2021-08-25T07:57:53.507Z</time>
      </trkpt>
      <trkpt lat="45.26646" lon="5.57481">
        <ele>689.5</ele>
        <time>2021-08-25T07:57:58.854Z</time>
      </trkpt>
      <trkpt lat="45.26654" lon="5.57463">
        <ele>689.9</ele>
        <time>2021-08-25T07:58:01.675Z</time>
      </trkpt>
      <trkpt lat="45.2667" lon="5.57449">
        <ele>690</ele>
        <time>2021-08-25T07:58:04.426Z</time>
      </trkpt>
      <trkpt lat="45.26691" lon="5.57454">
        <ele>689</ele>
        <time>2021-08-25T07:58:06.222Z</time>
      </trkpt>
      <trkpt lat="45.26713" lon="5.57459">
        <ele>688.1</ele>
        <time>2021-08-25T07:58:08.168Z</time>
      </trkpt>
      <trkpt lat="45.26743" lon="5.57461">
        <ele>686.6</ele>
        <time>2021-08-25T07:58:10.625Z</time>
      </trkpt>
      <trkpt lat="45.26768" lon="5.57464">
        <ele>686.1</ele>
        <time>2021-08-25T07:58:13.387Z</time>
      </trkpt>
      <trkpt lat="45.26792" lon="5.57466">
        <ele>685.9</ele>
        <time>2021-08-25T07:58:16.557Z</time>
      </trkpt>
      <trkpt lat="45.26823" lon="5.57475">
        <ele>686</ele>
        <time>2021-08-25T07:58:21.068Z</time>
      </trkpt>
      <trkpt lat="45.26838" lon="5.57463">
        <ele>685.4</ele>
        <time>2021-08-25T07:58:22.670Z</time>
      </trkpt>
      <trkpt lat="45.26876" lon="5.5742">
        <ele>684.2</ele>
        <time>2021-08-25T07:58:27.823Z</time>
      </trkpt>
      <trkpt lat="45.2691" lon="5.57393">
        <ele>684.1</ele>
        <time>2021-08-25T07:58:33.163Z</time>
      </trkpt>
      <trkpt lat="45.26954" lon="5.57392">
        <ele>686.4</ele>
        <time>2021-08-25T07:58:44.217Z</time>
      </trkpt>
      <trkpt lat="45.26993" lon="5.57377">
        <ele>688.2</ele>
        <time>2021-08-25T07:58:53.787Z</time>
      </trkpt>
      <trkpt lat="45.2702" lon="5.5735">
        <ele>690</ele>
        <time>2021-08-25T07:59:02.298Z</time>
      </trkpt>
      <trkpt lat="45.27047" lon="5.57327">
        <ele>691.9</ele>
        <time>2021-08-25T07:59:10.659Z</time>
      </trkpt>
      <trkpt lat="45.2707" lon="5.57315">
        <ele>693.6</ele>
        <time>2021-08-25T07:59:17.529Z</time>
      </trkpt>
      <trkpt lat="45.27085" lon="5.57297">
        <ele>694</ele>
        <time>2021-08-25T07:59:20.956Z</time>
      </trkpt>
      <trkpt lat="45.27101" lon="5.57272">
        <ele>695.6</ele>
        <time>2021-08-25T07:59:27.553Z</time>
      </trkpt>
      <trkpt lat="45.27117" lon="5.57252">
        <ele>697.5</ele>
        <time>2021-08-25T07:59:34.645Z</time>
      </trkpt>
      <trkpt lat="45.27142" lon="5.5724">
        <ele>701.9</ele>
        <time>2021-08-25T07:59:49.180Z</time>
      </trkpt>
      <trkpt lat="45.27164" lon="5.5724">
        <ele>706.2</ele>
        <time>2021-08-25T08:00:01.465Z</time>
      </trkpt>
      <trkpt lat="45.27171" lon="5.57237">
        <ele>706.9</ele>
        <time>2021-08-25T08:00:04.043Z</time>
      </trkpt>
      <trkpt lat="45.27188" lon="5.57233">
        <ele>708.2</ele>
        <time>2021-08-25T08:00:09.185Z</time>
      </trkpt>
      <trkpt lat="45.27207" lon="5.57239">
        <ele>710.3</ele>
        <time>2021-08-25T08:00:16.947Z</time>
      </trkpt>
      <trkpt lat="45.27227" lon="5.57243">
        <ele>712.3</ele>
        <time>2021-08-25T08:00:24.310Z</time>
      </trkpt>
      <trkpt lat="45.27252" lon="5.57242">
        <ele>714.5</ele>
        <time>2021-08-25T08:00:32.573Z</time>
      </trkpt>
      <trkpt lat="45.27271" lon="5.57232">
        <ele>714.7</ele>
        <time>2021-08-25T08:00:35.702Z</time>
      </trkpt>
      <trkpt lat="45.27278" lon="5.57228">
        <ele>714.8</ele>
        <time>2021-08-25T08:00:36.941Z</time>
      </trkpt>
      <trkpt lat="45.27286" lon="5.57242">
        <ele>716.2</ele>
        <time>2021-08-25T08:00:42.133Z</time>
      </trkpt>
      <trkpt lat="45.27292" lon="5.57295">
        <ele>722.1</ele>
        <time>2021-08-25T08:01:02.670Z</time>
      </trkpt>
      <trkpt lat="45.27305" lon="5.57331">
        <ele>727.3</ele>
        <time>2021-08-25T08:01:18.132Z</time>
      </trkpt>
      <trkpt lat="45.2732" lon="5.57352">
        <ele>732.1</ele>
        <time>2021-08-25T08:01:29.548Z</time>
      </trkpt>
      <trkpt lat="45.27352" lon="5.57362">
        <ele>736</ele>
        <time>2021-08-25T08:01:44.330Z</time>
      </trkpt>
      <trkpt lat="45.27384" lon="5.57357">
        <ele>736.6</ele>
        <time>2021-08-25T08:01:49.835Z</time>
      </trkpt>
      <trkpt lat="45.274" lon="5.57357">
        <ele>737.3</ele>
        <time>2021-08-25T08:01:53.603Z</time>
      </trkpt>
      <trkpt lat="45.27412" lon="5.57365">
        <ele>739.5</ele>
        <time>2021-08-25T08:02:00.991Z</time>
      </trkpt>
      <trkpt lat="45.27408" lon="5.57393">
        <ele>745.2</ele>
        <time>2021-08-25T08:02:11.990Z</time>
      </trkpt>
      <trkpt lat="45.27384" lon="5.57415">
        <ele>748.4</ele>
        <time>2021-08-25T08:02:23.894Z</time>
      </trkpt>
      <trkpt lat="45.27356" lon="5.57436">
        <ele>752.1</ele>
        <time>2021-08-25T08:02:37.914Z</time>
      </trkpt>
      <trkpt lat="45.27326" lon="5.5746">
        <ele>757.1</ele>
        <time>2021-08-25T08:02:57.099Z</time>
      </trkpt>
      <trkpt lat="45.27302" lon="5.57476">
        <ele>758.5</ele>
        <time>2021-08-25T08:03:03.661Z</time>
      </trkpt>
      <trkpt lat="45.27264" lon="5.57496">
        <ele>758.9</ele>
        <time>2021-08-25T08:03:09.974Z</time>
      </trkpt>
      <trkpt lat="45.27225" lon="5.57516">
        <ele>754.5</ele>
        <time>2021-08-25T08:03:13.210Z</time>
      </trkpt>
      <trkpt lat="45.27206" lon="5.57541">
        <ele>755</ele>
        <time>2021-08-25T08:03:17.695Z</time>
      </trkpt>
      <trkpt lat="45.27199" lon="5.57578">
        <ele>761.9</ele>
        <time>2021-08-25T08:03:32.644Z</time>
      </trkpt>
      <trkpt lat="45.27201" lon="5.57605">
        <ele>768.2</ele>
        <time>2021-08-25T08:03:42.894Z</time>
      </trkpt>
      <trkpt lat="45.27206" lon="5.57613">
        <ele>771.2</ele>
        <time>2021-08-25T08:03:47.210Z</time>
      </trkpt>
      <trkpt lat="45.27216" lon="5.57621">
        <ele>774.9</ele>
        <time>2021-08-25T08:03:53.088Z</time>
      </trkpt>
      <trkpt lat="45.27222" lon="5.57613">
        <ele>775.1</ele>
        <time>2021-08-25T08:03:54.609Z</time>
      </trkpt>
      <trkpt lat="45.27229" lon="5.57637">
        <ele>780.6</ele>
        <time>2021-08-25T08:04:04.506Z</time>
      </trkpt>
      <trkpt lat="45.27224" lon="5.57674">
        <ele>785.9</ele>
        <time>2021-08-25T08:04:18.687Z</time>
      </trkpt>
      <trkpt lat="45.27211" lon="5.57724">
        <ele>792.9</ele>
        <time>2021-08-25T08:04:39.263Z</time>
      </trkpt>
      <trkpt lat="45.27195" lon="5.57756">
        <ele>797</ele>
        <time>2021-08-25T08:04:54.345Z</time>
      </trkpt>
      <trkpt lat="45.27195" lon="5.57788">
        <ele>801.8</ele>
        <time>2021-08-25T08:05:06.797Z</time>
      </trkpt>
      <trkpt lat="45.27197" lon="5.57827">
        <ele>808</ele>
        <time>2021-08-25T08:05:21.820Z</time>
      </trkpt>
      <trkpt lat="45.27218" lon="5.57856">
        <ele>814.7</ele>
        <time>2021-08-25T08:05:37.662Z</time>
      </trkpt>
      <trkpt lat="45.27232" lon="5.57886">
        <ele>821.9</ele>
        <time>2021-08-25T08:05:51.533Z</time>
      </trkpt>
      <trkpt lat="45.27235" lon="5.57906">
        <ele>826</ele>
        <time>2021-08-25T08:05:59.335Z</time>
      </trkpt>
      <trkpt lat="45.27237" lon="5.57956">
        <ele>830.9</ele>
        <time>2021-08-25T08:06:18.543Z</time>
      </trkpt>
      <trkpt lat="45.27246" lon="5.58002">
        <ele>835.3</ele>
        <time>2021-08-25T08:06:36.249Z</time>
      </trkpt>
      <trkpt lat="45.2725" lon="5.58029">
        <ele>837</ele>
        <time>2021-08-25T08:06:42.622Z</time>
      </trkpt>
      <trkpt lat="45.27236" lon="5.58087">
        <ele>836.8</ele>
        <time>2021-08-25T08:06:48.385Z</time>
      </trkpt>
      <trkpt lat="45.27229" lon="5.58132">
        <ele>834.4</ele>
        <time>2021-08-25T08:06:50.887Z</time>
      </trkpt>
      <trkpt lat="45.27226" lon="5.58166">
        <ele>833</ele>
        <time>2021-08-25T08:06:52.734Z</time>
      </trkpt>
      <trkpt lat="45.27223" lon="5.58186">
        <ele>833.5</ele>
        <time>2021-08-25T08:06:55.768Z</time>
      </trkpt>
      <trkpt lat="45.27221" lon="5.58214">
        <ele>834.5</ele>
        <time>2021-08-25T08:07:00.630Z</time>
      </trkpt>
      <trkpt lat="45.2722" lon="5.58249">
        <ele>835.9</ele>
        <time>2021-08-25T08:07:06.991Z</time>
      </trkpt>
      <trkpt lat="45.27219" lon="5.58285">
        <ele>838</ele>
        <time>2021-08-25T08:07:14.984Z</time>
      </trkpt>
      <trkpt lat="45.27218" lon="5.58323">
        <ele>840.4</ele>
        <time>2021-08-25T08:07:23.974Z</time>
      </trkpt>
      <trkpt lat="45.27231" lon="5.5836">
        <ele>842.4</ele>
        <time>2021-08-25T08:07:32.118Z</time>
      </trkpt>
      <trkpt lat="45.27258" lon="5.58424">
        <ele>847.6</ele>
        <time>2021-08-25T08:07:51.273Z</time>
      </trkpt>
      <trkpt lat="45.27277" lon="5.58484">
        <ele>851.9</ele>
        <time>2021-08-25T08:08:07.206Z</time>
      </trkpt>
      <trkpt lat="45.2729" lon="5.58543">
        <ele>849.8</ele>
        <time>2021-08-25T08:08:10.825Z</time>
      </trkpt>
      <trkpt lat="45.27299" lon="5.58591">
        <ele>848</ele>
        <time>2021-08-25T08:08:13.639Z</time>
      </trkpt>
      <trkpt lat="45.27306" lon="5.58622">
        <ele>846.2</ele>
        <time>2021-08-25T08:08:15.420Z</time>
      </trkpt>
      <trkpt lat="45.27308" lon="5.58634">
        <ele>845.4</ele>
        <time>2021-08-25T08:08:16.073Z</time>
      </trkpt>
      <trkpt lat="45.27311" lon="5.58648">
        <ele>844.8</ele>
        <time>2021-08-25T08:08:16.855Z</time>
      </trkpt>
      <trkpt lat="45.2732" lon="5.58662">
        <ele>845.8</ele>
        <time>2021-08-25T08:08:20.822Z</time>
      </trkpt>
      <trkpt lat="45.27326" lon="5.58687">
        <ele>846</ele>
        <time>2021-08-25T08:08:23.807Z</time>
      </trkpt>
      <trkpt lat="45.27329" lon="5.58698">
        <ele>846.1</ele>
        <time>2021-08-25T08:08:25.058Z</time>
      </trkpt>
      <trkpt lat="45.27325" lon="5.58688">
        <ele>845.6</ele>
        <time>2021-08-25T08:08:25.660Z</time>
      </trkpt>
      <trkpt lat="45.27333" lon="5.58701">
        <ele>847</ele>
        <time>2021-08-25T08:08:30.850Z</time>
      </trkpt>
      <trkpt lat="45.27355" lon="5.58734">
        <ele>850.9</ele>
        <time>2021-08-25T08:08:46.038Z</time>
      </trkpt>
      <trkpt lat="45.27384" lon="5.58779">
        <ele>856</ele>
        <time>2021-08-25T08:09:05.305Z</time>
      </trkpt>
      <trkpt lat="45.2741" lon="5.58831">
        <ele>859.9</ele>
        <time>2021-08-25T08:09:19.936Z</time>
      </trkpt>
      <trkpt lat="45.27427" lon="5.58877">
        <ele>858.3</ele>
        <time>2021-08-25T08:09:23.109Z</time>
      </trkpt>
      <trkpt lat="45.2745" lon="5.58905">
        <ele>863.1</ele>
        <time>2021-08-25T08:09:39.763Z</time>
      </trkpt>
      <trkpt lat="45.27477" lon="5.58925">
        <ele>871.8</ele>
        <time>2021-08-25T08:09:56.264Z</time>
      </trkpt>
      <trkpt lat="45.27514" lon="5.58944">
        <ele>881.6</ele>
        <time>2021-08-25T08:10:17.819Z</time>
      </trkpt>
      <trkpt lat="45.27531" lon="5.5898">
        <ele>881.9</ele>
        <time>2021-08-25T08:10:22.624Z</time>
      </trkpt>
      <trkpt lat="45.27533" lon="5.59031">
        <ele>878.7</ele>
        <time>2021-08-25T08:10:25.394Z</time>
      </trkpt>
      <trkpt lat="45.27544" lon="5.59061">
        <ele>880.9</ele>
        <time>2021-08-25T08:10:33.555Z</time>
      </trkpt>
      <trkpt lat="45.27566" lon="5.59094">
        <ele>886.4</ele>
        <time>2021-08-25T08:10:50.954Z</time>
      </trkpt>
      <trkpt lat="45.27602" lon="5.59125">
        <ele>892.4</ele>
        <time>2021-08-25T08:11:13.962Z</time>
      </trkpt>
      <trkpt lat="45.27625" lon="5.59147">
        <ele>896.7</ele>
        <time>2021-08-25T08:11:29.323Z</time>
      </trkpt>
      <trkpt lat="45.27647" lon="5.59176">
        <ele>900.6</ele>
        <time>2021-08-25T08:11:44.964Z</time>
      </trkpt>
      <trkpt lat="45.27675" lon="5.59208">
        <ele>902.3</ele>
        <time>2021-08-25T08:11:53.626Z</time>
      </trkpt>
      <trkpt lat="45.27702" lon="5.59237">
        <ele>901.1</ele>
        <time>2021-08-25T08:11:56.811Z</time>
      </trkpt>
      <trkpt lat="45.27739" lon="5.59272">
        <ele>901.1</ele>
        <time>2021-08-25T08:12:03.137Z</time>
      </trkpt>
      <trkpt lat="45.27761" lon="5.59297">
        <ele>901.1</ele>
        <time>2021-08-25T08:12:07.078Z</time>
      </trkpt>
      <trkpt lat="45.27781" lon="5.59337">
        <ele>899.4</ele>
        <time>2021-08-25T08:12:09.950Z</time>
      </trkpt>
      <trkpt lat="45.27798" lon="5.59367">
        <ele>897.6</ele>
        <time>2021-08-25T08:12:11.919Z</time>
      </trkpt>
      <trkpt lat="45.27825" lon="5.5939">
        <ele>901.6</ele>
        <time>2021-08-25T08:12:27.943Z</time>
      </trkpt>
      <trkpt lat="45.27851" lon="5.59414">
        <ele>905.7</ele>
        <time>2021-08-25T08:12:44.407Z</time>
      </trkpt>
      <trkpt lat="45.27885" lon="5.59429">
        <ele>915</ele>
        <time>2021-08-25T08:13:03.925Z</time>
      </trkpt>
      <trkpt lat="45.27918" lon="5.59449">
        <ele>924.5</ele>
        <time>2021-08-25T08:13:23.376Z</time>
      </trkpt>
      <trkpt lat="45.27932" lon="5.59472">
        <ele>924.2</ele>
        <time>2021-08-25T08:13:25.974Z</time>
      </trkpt>
      <trkpt lat="45.27946" lon="5.59488">
        <ele>925.4</ele>
        <time>2021-08-25T08:13:30.856Z</time>
      </trkpt>
      <trkpt lat="45.27957" lon="5.59498">
        <ele>927.2</ele>
        <time>2021-08-25T08:13:38.134Z</time>
      </trkpt>
      <trkpt lat="45.27966" lon="5.5951">
        <ele>926.8</ele>
        <time>2021-08-25T08:13:39.383Z</time>
      </trkpt>
      <trkpt lat="45.27975" lon="5.59525">
        <ele>925.8</ele>
        <time>2021-08-25T08:13:40.421Z</time>
      </trkpt>
      <trkpt lat="45.27985" lon="5.59548">
        <ele>924.3</ele>
        <time>2021-08-25T08:13:41.950Z</time>
      </trkpt>
      <trkpt lat="45.27994" lon="5.59564">
        <ele>924.7</ele>
        <time>2021-08-25T08:13:44.706Z</time>
      </trkpt>
      <trkpt lat="45.27994" lon="5.59583">
        <ele>921.1</ele>
        <time>2021-08-25T08:13:45.723Z</time>
      </trkpt>
      <trkpt lat="45.27947" lon="5.59592">
        <ele>894.3</ele>
        <time>2021-08-25T08:13:49.380Z</time>
      </trkpt>
      <trkpt lat="45.27998" lon="5.59585">
        <ele>922</ele>
        <time>2021-08-25T08:14:16.975Z</time>
      </trkpt>
      <trkpt lat="45.28004" lon="5.59592">
        <ele>920.9</ele>
        <time>2021-08-25T08:14:17.618Z</time>
      </trkpt>
      <trkpt lat="45.28011" lon="5.59599">
        <ele>919.2</ele>
        <time>2021-08-25T08:14:18.241Z</time>
      </trkpt>
      <trkpt lat="45.28024" lon="5.59611">
        <ele>917.4</ele>
        <time>2021-08-25T08:14:19.499Z</time>
      </trkpt>
      <trkpt lat="45.2804" lon="5.59623">
        <ele>917.1</ele>
        <time>2021-08-25T08:14:21.525Z</time>
      </trkpt>
      <trkpt lat="45.28056" lon="5.59639">
        <ele>917.1</ele>
        <time>2021-08-25T08:14:24.254Z</time>
      </trkpt>
      <trkpt lat="45.28074" lon="5.59653">
        <ele>920.2</ele>
        <time>2021-08-25T08:14:35.697Z</time>
      </trkpt>
      <trkpt lat="45.28093" lon="5.59672">
        <ele>920.8</ele>
        <time>2021-08-25T08:14:40.004Z</time>
      </trkpt>
      <trkpt lat="45.28115" lon="5.59685">
        <ele>920.5</ele>
        <time>2021-08-25T08:14:42.846Z</time>
      </trkpt>
      <trkpt lat="45.28135" lon="5.597">
        <ele>920.7</ele>
        <time>2021-08-25T08:14:46.314Z</time>
      </trkpt>
      <trkpt lat="45.28162" lon="5.59725">
        <ele>921.6</ele>
        <time>2021-08-25T08:14:52.511Z</time>
      </trkpt>
      <trkpt lat="45.28176" lon="5.59743">
        <ele>921.6</ele>
        <time>2021-08-25T08:14:55.214Z</time>
      </trkpt>
      <trkpt lat="45.28194" lon="5.59763">
        <ele>921</ele>
        <time>2021-08-25T08:14:57.468Z</time>
      </trkpt>
      <trkpt lat="45.28205" lon="5.59777">
        <ele>919.7</ele>
        <time>2021-08-25T08:14:58.632Z</time>
      </trkpt>
      <trkpt lat="45.2822" lon="5.5979">
        <ele>920.8</ele>
        <time>2021-08-25T08:15:03.456Z</time>
      </trkpt>
      <trkpt lat="45.28236" lon="5.59802">
        <ele>923.3</ele>
        <time>2021-08-25T08:15:13.132Z</time>
      </trkpt>
      <trkpt lat="45.28252" lon="5.598">
        <ele>930.8</ele>
        <time>2021-08-25T08:15:21.931Z</time>
      </trkpt>
      <trkpt lat="45.28266" lon="5.59804">
        <ele>934.4</ele>
        <time>2021-08-25T08:15:29.773Z</time>
      </trkpt>
      <trkpt lat="45.28279" lon="5.59803">
        <ele>939.1</ele>
        <time>2021-08-25T08:15:36.499Z</time>
      </trkpt>
      <trkpt lat="45.28293" lon="5.59787">
        <ele>949</ele>
        <time>2021-08-25T08:15:46.231Z</time>
      </trkpt>
      <trkpt lat="45.28311" lon="5.59772">
        <ele>959.6</ele>
        <time>2021-08-25T08:15:57.615Z</time>
      </trkpt>
      <trkpt lat="45.28321" lon="5.59771">
        <ele>963.3</ele>
        <time>2021-08-25T08:16:03.312Z</time>
      </trkpt>
      <trkpt lat="45.28336" lon="5.59777">
        <ele>965.4</ele>
        <time>2021-08-25T08:16:11.662Z</time>
      </trkpt>
      <trkpt lat="45.28348" lon="5.59781">
        <ele>963.4</ele>
        <time>2021-08-25T08:16:12.674Z</time>
      </trkpt>
      <trkpt lat="45.28362" lon="5.59785">
        <ele>961.7</ele>
        <time>2021-08-25T08:16:13.767Z</time>
      </trkpt>
      <trkpt lat="45.28374" lon="5.59781">
        <ele>961.8</ele>
        <time>2021-08-25T08:16:15.634Z</time>
      </trkpt>
      <trkpt lat="45.28384" lon="5.59762">
        <ele>964.6</ele>
        <time>2021-08-25T08:16:24.626Z</time>
      </trkpt>
      <trkpt lat="45.28391" lon="5.59748">
        <ele>966.1</ele>
        <time>2021-08-25T08:16:30.425Z</time>
      </trkpt>
      <trkpt lat="45.28397" lon="5.59724">
        <ele>965.4</ele>
        <time>2021-08-25T08:16:32.076Z</time>
      </trkpt>
      <trkpt lat="45.284" lon="5.59711">
        <ele>965</ele>
        <time>2021-08-25T08:16:32.959Z</time>
      </trkpt>
      <trkpt lat="45.28407" lon="5.59694">
        <ele>964.3</ele>
        <time>2021-08-25T08:16:33.986Z</time>
      </trkpt>
      <trkpt lat="45.2841" lon="5.59677">
        <ele>963.9</ele>
        <time>2021-08-25T08:16:35.200Z</time>
      </trkpt>
      <trkpt lat="45.28418" lon="5.59655">
        <ele>963.2</ele>
        <time>2021-08-25T08:16:36.757Z</time>
      </trkpt>
      <trkpt lat="45.28425" lon="5.59643">
        <ele>962.9</ele>
        <time>2021-08-25T08:16:37.894Z</time>
      </trkpt>
      <trkpt lat="45.28423" lon="5.59626">
        <ele>963.5</ele>
        <time>2021-08-25T08:16:40.874Z</time>
      </trkpt>
      <trkpt lat="45.28429" lon="5.59609">
        <ele>963.5</ele>
        <time>2021-08-25T08:16:42.692Z</time>
      </trkpt>
      <trkpt lat="45.28437" lon="5.59586">
        <ele>963.5</ele>
        <time>2021-08-25T08:16:45.253Z</time>
      </trkpt>
      <trkpt lat="45.28446" lon="5.59568">
        <ele>963.1</ele>
        <time>2021-08-25T08:16:46.856Z</time>
      </trkpt>
      <trkpt lat="45.2845" lon="5.59548">
        <ele>963.1</ele>
        <time>2021-08-25T08:16:48.958Z</time>
      </trkpt>
      <trkpt lat="45.28456" lon="5.59541">
        <ele>962.7</ele>
        <time>2021-08-25T08:16:49.640Z</time>
      </trkpt>
      <trkpt lat="45.28467" lon="5.59525">
        <ele>961.9</ele>
        <time>2021-08-25T08:16:50.893Z</time>
      </trkpt>
      <trkpt lat="45.28471" lon="5.59519">
        <ele>961.6</ele>
        <time>2021-08-25T08:16:51.408Z</time>
      </trkpt>
      <trkpt lat="45.28477" lon="5.59502">
        <ele>961.2</ele>
        <time>2021-08-25T08:16:52.737Z</time>
      </trkpt>
      <trkpt lat="45.28484" lon="5.59502">
        <ele>960.5</ele>
        <time>2021-08-25T08:16:53.276Z</time>
      </trkpt>
      <trkpt lat="45.28492" lon="5.59501">
        <ele>959.8</ele>
        <time>2021-08-25T08:16:53.865Z</time>
      </trkpt>
      <trkpt lat="45.285" lon="5.59502">
        <ele>959</ele>
        <time>2021-08-25T08:16:54.494Z</time>
      </trkpt>
      <trkpt lat="45.2851" lon="5.59483">
        <ele>959.8</ele>
        <time>2021-08-25T08:16:58.600Z</time>
      </trkpt>
      <trkpt lat="45.28518" lon="5.59469">
        <ele>960.4</ele>
        <time>2021-08-25T08:17:01.653Z</time>
      </trkpt>
      <trkpt lat="45.28522" lon="5.59455">
        <ele>960.7</ele>
        <time>2021-08-25T08:17:03.747Z</time>
      </trkpt>
      <trkpt lat="45.28529" lon="5.59448">
        <ele>961.4</ele>
        <time>2021-08-25T08:17:06.388Z</time>
      </trkpt>
      <trkpt lat="45.28537" lon="5.59442">
        <ele>962.2</ele>
        <time>2021-08-25T08:17:09.398Z</time>
      </trkpt>
      <trkpt lat="45.2855" lon="5.59443">
        <ele>963.6</ele>
        <time>2021-08-25T08:17:14.565Z</time>
      </trkpt>
      <trkpt lat="45.28558" lon="5.59446">
        <ele>964.4</ele>
        <time>2021-08-25T08:17:17.517Z</time>
      </trkpt>
      <trkpt lat="45.28565" lon="5.59455">
        <ele>965.1</ele>
        <time>2021-08-25T08:17:20.229Z</time>
      </trkpt>
      <trkpt lat="45.28572" lon="5.59459">
        <ele>965.9</ele>
        <time>2021-08-25T08:17:23.184Z</time>
      </trkpt>
      <trkpt lat="45.28578" lon="5.59468">
        <ele>966.4</ele>
        <time>2021-08-25T08:17:25.353Z</time>
      </trkpt>
      <trkpt lat="45.28586" lon="5.59471">
        <ele>967.3</ele>
        <time>2021-08-25T08:17:28.677Z</time>
      </trkpt>
      <trkpt lat="45.28595" lon="5.59475">
        <ele>968.6</ele>
        <time>2021-08-25T08:17:33.991Z</time>
      </trkpt>
      <trkpt lat="45.28603" lon="5.59478">
        <ele>969.9</ele>
        <time>2021-08-25T08:17:38.764Z</time>
      </trkpt>
      <trkpt lat="45.28611" lon="5.59481">
        <ele>971</ele>
        <time>2021-08-25T08:17:42.935Z</time>
      </trkpt>
      <trkpt lat="45.28618" lon="5.59488">
        <ele>972.3</ele>
        <time>2021-08-25T08:17:47.697Z</time>
      </trkpt>
      <trkpt lat="45.28623" lon="5.59498">
        <ele>973.6</ele>
        <time>2021-08-25T08:17:52.472Z</time>
      </trkpt>
      <trkpt lat="45.28636" lon="5.5951">
        <ele>975.8</ele>
        <time>2021-08-25T08:18:00.623Z</time>
      </trkpt>
      <trkpt lat="45.28649" lon="5.59511">
        <ele>978.2</ele>
        <time>2021-08-25T08:18:08.124Z</time>
      </trkpt>
      <trkpt lat="45.2866" lon="5.59512">
        <ele>980.1</ele>
        <time>2021-08-25T08:18:14.242Z</time>
      </trkpt>
      <trkpt lat="45.28673" lon="5.59505">
        <ele>981</ele>
        <time>2021-08-25T08:18:17.996Z</time>
      </trkpt>
      <trkpt lat="45.28682" lon="5.59506">
        <ele>981</ele>
        <time>2021-08-25T08:18:19.232Z</time>
      </trkpt>
      <trkpt lat="45.28687" lon="5.59515">
        <ele>981</ele>
        <time>2021-08-25T08:18:20.408Z</time>
      </trkpt>
      <trkpt lat="45.28695" lon="5.59519">
        <ele>981</ele>
        <time>2021-08-25T08:18:21.555Z</time>
      </trkpt>
      <trkpt lat="45.28705" lon="5.59524">
        <ele>980.9</ele>
        <time>2021-08-25T08:18:22.916Z</time>
      </trkpt>
      <trkpt lat="45.28712" lon="5.59527">
        <ele>980.8</ele>
        <time>2021-08-25T08:18:23.822Z</time>
      </trkpt>
      <trkpt lat="45.28717" lon="5.59536">
        <ele>980.6</ele>
        <time>2021-08-25T08:18:24.689Z</time>
      </trkpt>
      <trkpt lat="45.28724" lon="5.59543">
        <ele>980.5</ele>
        <time>2021-08-25T08:18:25.686Z</time>
      </trkpt>
      <trkpt lat="45.28731" lon="5.59549">
        <ele>980.2</ele>
        <time>2021-08-25T08:18:26.466Z</time>
      </trkpt>
      <trkpt lat="45.28723" lon="5.59543">
        <ele>980.5</ele>
        <time>2021-08-25T08:18:28.287Z</time>
      </trkpt>
      <trkpt lat="45.28716" lon="5.59539">
        <ele>980.6</ele>
        <time>2021-08-25T08:18:29.537Z</time>
      </trkpt>
      <trkpt lat="45.2871" lon="5.59531">
        <ele>980.8</ele>
        <time>2021-08-25T08:18:31.054Z</time>
      </trkpt>
      <trkpt lat="45.28702" lon="5.59527">
        <ele>980.9</ele>
        <time>2021-08-25T08:18:32.387Z</time>
      </trkpt>
      <trkpt lat="45.28695" lon="5.59524">
        <ele>981</ele>
        <time>2021-08-25T08:18:33.576Z</time>
      </trkpt>
      <trkpt lat="45.28687" lon="5.59519">
        <ele>981.1</ele>
        <time>2021-08-25T08:18:34.937Z</time>
      </trkpt>
      <trkpt lat="45.28682" lon="5.5951">
        <ele>981.1</ele>
        <time>2021-08-25T08:18:36.120Z</time>
      </trkpt>
      <trkpt lat="45.28675" lon="5.59502">
        <ele>981</ele>
        <time>2021-08-25T08:18:37.134Z</time>
      </trkpt>
      <trkpt lat="45.28668" lon="5.595">
        <ele>981</ele>
        <time>2021-08-25T08:18:38.252Z</time>
      </trkpt>
      <trkpt lat="45.28658" lon="5.59506">
        <ele>979.6</ele>
        <time>2021-08-25T08:18:39.081Z</time>
      </trkpt>
      <trkpt lat="45.28647" lon="5.59511">
        <ele>977.7</ele>
        <time>2021-08-25T08:18:39.996Z</time>
      </trkpt>
      <trkpt lat="45.28639" lon="5.59511">
        <ele>976.4</ele>
        <time>2021-08-25T08:18:40.628Z</time>
      </trkpt>
      <trkpt lat="45.28627" lon="5.59509">
        <ele>974.4</ele>
        <time>2021-08-25T08:18:41.509Z</time>
      </trkpt>
      <trkpt lat="45.28619" lon="5.59499">
        <ele>972.9</ele>
        <time>2021-08-25T08:18:42.385Z</time>
      </trkpt>
      <trkpt lat="45.28613" lon="5.59489">
        <ele>971.6</ele>
        <time>2021-08-25T08:18:43.066Z</time>
      </trkpt>
      <trkpt lat="45.28608" lon="5.59484">
        <ele>970.6</ele>
        <time>2021-08-25T08:18:43.588Z</time>
      </trkpt>
      <trkpt lat="45.28599" lon="5.59481">
        <ele>969.3</ele>
        <time>2021-08-25T08:18:44.284Z</time>
      </trkpt>
      <trkpt lat="45.2859" lon="5.5948">
        <ele>968</ele>
        <time>2021-08-25T08:18:44.980Z</time>
      </trkpt>
      <trkpt lat="45.28582" lon="5.59477">
        <ele>966.9</ele>
        <time>2021-08-25T08:18:45.615Z</time>
      </trkpt>
      <trkpt lat="45.28578" lon="5.59471">
        <ele>966.5</ele>
        <time>2021-08-25T08:18:46.065Z</time>
      </trkpt>
      <trkpt lat="45.28571" lon="5.59464">
        <ele>965.7</ele>
        <time>2021-08-25T08:18:46.726Z</time>
      </trkpt>
      <trkpt lat="45.28564" lon="5.5946">
        <ele>965</ele>
        <time>2021-08-25T08:18:47.314Z</time>
      </trkpt>
      <trkpt lat="45.28558" lon="5.5945">
        <ele>964.4</ele>
        <time>2021-08-25T08:18:47.997Z</time>
      </trkpt>
      <trkpt lat="45.2855" lon="5.59447">
        <ele>963.5</ele>
        <time>2021-08-25T08:18:48.672Z</time>
      </trkpt>
      <trkpt lat="45.28542" lon="5.59444">
        <ele>962.7</ele>
        <time>2021-08-25T08:18:49.342Z</time>
      </trkpt>
      <trkpt lat="45.28535" lon="5.59439">
        <ele>961.9</ele>
        <time>2021-08-25T08:18:49.960Z</time>
      </trkpt>
      <trkpt lat="45.28526" lon="5.59443">
        <ele>961.1</ele>
        <time>2021-08-25T08:18:50.638Z</time>
      </trkpt>
      <trkpt lat="45.2852" lon="5.59452">
        <ele>960.5</ele>
        <time>2021-08-25T08:18:51.304Z</time>
      </trkpt>
      <trkpt lat="45.28516" lon="5.59459">
        <ele>960.1</ele>
        <time>2021-08-25T08:18:51.845Z</time>
      </trkpt>
      <trkpt lat="45.2851" lon="5.5947">
        <ele>959.6</ele>
        <time>2021-08-25T08:18:52.646Z</time>
      </trkpt>
      <trkpt lat="45.28502" lon="5.59474">
        <ele>958.9</ele>
        <time>2021-08-25T08:18:53.293Z</time>
      </trkpt>
      <trkpt lat="45.28496" lon="5.59481">
        <ele>959.1</ele>
        <time>2021-08-25T08:18:54.759Z</time>
      </trkpt>
      <trkpt lat="45.2849" lon="5.59491">
        <ele>959.8</ele>
        <time>2021-08-25T08:18:57.432Z</time>
      </trkpt>
      <trkpt lat="45.28487" lon="5.59502">
        <ele>960.2</ele>
        <time>2021-08-25T08:18:59.519Z</time>
      </trkpt>
      <trkpt lat="45.28481" lon="5.59509">
        <ele>960.8</ele>
        <time>2021-08-25T08:19:01.869Z</time>
      </trkpt>
      <trkpt lat="45.28474" lon="5.59504">
        <ele>961.5</ele>
        <time>2021-08-25T08:19:04.478Z</time>
      </trkpt>
      <trkpt lat="45.28466" lon="5.59502">
        <ele>962.3</ele>
        <time>2021-08-25T08:19:07.430Z</time>
      </trkpt>
      <trkpt lat="45.28454" lon="5.59492">
        <ele>963.1</ele>
        <time>2021-08-25T08:19:11.062Z</time>
      </trkpt>
      <trkpt lat="45.28446" lon="5.59487">
        <ele>963.7</ele>
        <time>2021-08-25T08:19:13.530Z</time>
      </trkpt>
      <trkpt lat="45.28439" lon="5.5948">
        <ele>963.9</ele>
        <time>2021-08-25T08:19:15.024Z</time>
      </trkpt>
      <trkpt lat="45.2843" lon="5.59479">
        <ele>964.6</ele>
        <time>2021-08-25T08:19:17.718Z</time>
      </trkpt>
      <trkpt lat="45.28425" lon="5.5947">
        <ele>964.5</ele>
        <time>2021-08-25T08:19:18.740Z</time>
      </trkpt>
      <trkpt lat="45.28417" lon="5.59469">
        <ele>965.2</ele>
        <time>2021-08-25T08:19:21.402Z</time>
      </trkpt>
      <trkpt lat="45.28408" lon="5.59462">
        <ele>965</ele>
        <time>2021-08-25T08:19:22.565Z</time>
      </trkpt>
      <trkpt lat="45.28399" lon="5.5946">
        <ele>965.1</ele>
        <time>2021-08-25T08:19:23.923Z</time>
      </trkpt>
      <trkpt lat="45.28388" lon="5.5944">
        <ele>964.5</ele>
        <time>2021-08-25T08:19:25.623Z</time>
      </trkpt>
      <trkpt lat="45.28383" lon="5.59421">
        <ele>963.8</ele>
        <time>2021-08-25T08:19:26.738Z</time>
      </trkpt>
      <trkpt lat="45.28381" lon="5.59406">
        <ele>962.8</ele>
        <time>2021-08-25T08:19:27.582Z</time>
      </trkpt>
      <trkpt lat="45.28381" lon="5.59385">
        <ele>960.8</ele>
        <time>2021-08-25T08:19:28.761Z</time>
      </trkpt>
      <trkpt lat="45.28374" lon="5.59358">
        <ele>958.7</ele>
        <time>2021-08-25T08:19:30.354Z</time>
      </trkpt>
      <trkpt lat="45.28365" lon="5.59348">
        <ele>958.4</ele>
        <time>2021-08-25T08:19:31.474Z</time>
      </trkpt>
      <trkpt lat="45.28358" lon="5.59337">
        <ele>957.8</ele>
        <time>2021-08-25T08:19:32.275Z</time>
      </trkpt>
      <trkpt lat="45.28345" lon="5.59329">
        <ele>958.2</ele>
        <time>2021-08-25T08:19:35.059Z</time>
      </trkpt>
      <trkpt lat="45.28334" lon="5.59322">
        <ele>958.5</ele>
        <time>2021-08-25T08:19:37.245Z</time>
      </trkpt>
      <trkpt lat="45.28321" lon="5.59316">
        <ele>957.8</ele>
        <time>2021-08-25T08:19:38.353Z</time>
      </trkpt>
      <trkpt lat="45.28307" lon="5.59308">
        <ele>956.9</ele>
        <time>2021-08-25T08:19:39.448Z</time>
      </trkpt>
      <trkpt lat="45.28301" lon="5.59303">
        <ele>956.5</ele>
        <time>2021-08-25T08:19:40.021Z</time>
      </trkpt>
      <trkpt lat="45.28294" lon="5.59297">
        <ele>956</ele>
        <time>2021-08-25T08:19:40.634Z</time>
      </trkpt>
      <trkpt lat="45.28289" lon="5.59299">
        <ele>955.8</ele>
        <time>2021-08-25T08:19:41.132Z</time>
      </trkpt>
      <trkpt lat="45.28285" lon="5.59294">
        <ele>955.5</ele>
        <time>2021-08-25T08:19:41.459Z</time>
      </trkpt>
      <trkpt lat="45.283" lon="5.5928">
        <ele>955.7</ele>
        <time>2021-08-25T08:19:44.252Z</time>
      </trkpt>
      <trkpt lat="45.28325" lon="5.59283">
        <ele>956.9</ele>
        <time>2021-08-25T08:19:50.420Z</time>
      </trkpt>
      <trkpt lat="45.28338" lon="5.59284">
        <ele>956.9</ele>
        <time>2021-08-25T08:19:52.240Z</time>
      </trkpt>
      <trkpt lat="45.28353" lon="5.59286">
        <ele>955.7</ele>
        <time>2021-08-25T08:19:53.392Z</time>
      </trkpt>
      <trkpt lat="45.28364" lon="5.59286">
        <ele>954.8</ele>
        <time>2021-08-25T08:19:54.308Z</time>
      </trkpt>
      <trkpt lat="45.28376" lon="5.59286">
        <ele>953.9</ele>
        <time>2021-08-25T08:19:55.230Z</time>
      </trkpt>
      <trkpt lat="45.2839" lon="5.59269">
        <ele>951.7</ele>
        <time>2021-08-25T08:19:56.653Z</time>
      </trkpt>
      <trkpt lat="45.28392" lon="5.59258">
        <ele>950.8</ele>
        <time>2021-08-25T08:19:57.318Z</time>
      </trkpt>
      <trkpt lat="45.28396" lon="5.59246">
        <ele>949.8</ele>
        <time>2021-08-25T08:19:58.016Z</time>
      </trkpt>
      <trkpt lat="45.28401" lon="5.59237">
        <ele>948.9</ele>
        <time>2021-08-25T08:19:58.645Z</time>
      </trkpt>
      <trkpt lat="45.28401" lon="5.59225">
        <ele>948.2</ele>
        <time>2021-08-25T08:19:59.319Z</time>
      </trkpt>
      <trkpt lat="45.28402" lon="5.59212">
        <ele>947.5</ele>
        <time>2021-08-25T08:20:00.017Z</time>
      </trkpt>
      <trkpt lat="45.28403" lon="5.59201">
        <ele>946.8</ele>
        <time>2021-08-25T08:20:00.633Z</time>
      </trkpt>
      <trkpt lat="45.284" lon="5.5919">
        <ele>946.6</ele>
        <time>2021-08-25T08:20:01.558Z</time>
      </trkpt>
      <trkpt lat="45.28396" lon="5.59179">
        <ele>946.3</ele>
        <time>2021-08-25T08:20:02.356Z</time>
      </trkpt>
      <trkpt lat="45.2839" lon="5.5917">
        <ele>946.4</ele>
        <time>2021-08-25T08:20:03.731Z</time>
      </trkpt>
      <trkpt lat="45.28386" lon="5.59157">
        <ele>945.3</ele>
        <time>2021-08-25T08:20:04.530Z</time>
      </trkpt>
      <trkpt lat="45.28374" lon="5.59135">
        <ele>943.1</ele>
        <time>2021-08-25T08:20:06.054Z</time>
      </trkpt>
      <trkpt lat="45.28357" lon="5.59128">
        <ele>943</ele>
        <time>2021-08-25T08:20:08.350Z</time>
      </trkpt>
      <trkpt lat="45.2833" lon="5.59114">
        <ele>942.2</ele>
        <time>2021-08-25T08:20:11.253Z</time>
      </trkpt>
      <trkpt lat="45.28309" lon="5.59098">
        <ele>939.7</ele>
        <time>2021-08-25T08:20:13.129Z</time>
      </trkpt>
      <trkpt lat="45.28291" lon="5.59085">
        <ele>937.7</ele>
        <time>2021-08-25T08:20:14.691Z</time>
      </trkpt>
      <trkpt lat="45.28273" lon="5.59075">
        <ele>936.3</ele>
        <time>2021-08-25T08:20:16.180Z</time>
      </trkpt>
      <trkpt lat="45.28251" lon="5.59064">
        <ele>934.5</ele>
        <time>2021-08-25T08:20:17.985Z</time>
      </trkpt>
      <trkpt lat="45.28238" lon="5.59064">
        <ele>934</ele>
        <time>2021-08-25T08:20:19.268Z</time>
      </trkpt>
      <trkpt lat="45.28226" lon="5.59061">
        <ele>932.8</ele>
        <time>2021-08-25T08:20:20.220Z</time>
      </trkpt>
      <trkpt lat="45.28218" lon="5.59055">
        <ele>931.4</ele>
        <time>2021-08-25T08:20:20.856Z</time>
      </trkpt>
      <trkpt lat="45.28208" lon="5.59043">
        <ele>928.5</ele>
        <time>2021-08-25T08:20:21.906Z</time>
      </trkpt>
      <trkpt lat="45.28197" lon="5.59038">
        <ele>926.9</ele>
        <time>2021-08-25T08:20:22.795Z</time>
      </trkpt>
      <trkpt lat="45.28189" lon="5.59026">
        <ele>923.9</ele>
        <time>2021-08-25T08:20:23.730Z</time>
      </trkpt>
      <trkpt lat="45.28182" lon="5.59018">
        <ele>921.8</ele>
        <time>2021-08-25T08:20:24.452Z</time>
      </trkpt>
      <trkpt lat="45.28181" lon="5.59008">
        <ele>919.7</ele>
        <time>2021-08-25T08:20:25.008Z</time>
      </trkpt>
      <trkpt lat="45.28191" lon="5.59">
        <ele>918.8</ele>
        <time>2021-08-25T08:20:25.854Z</time>
      </trkpt>
      <trkpt lat="45.28198" lon="5.58992">
        <ele>918.9</ele>
        <time>2021-08-25T08:20:27.354Z</time>
      </trkpt>
      <trkpt lat="45.28205" lon="5.5899">
        <ele>919.3</ele>
        <time>2021-08-25T08:20:29.100Z</time>
      </trkpt>
      <trkpt lat="45.28213" lon="5.58978">
        <ele>919.2</ele>
        <time>2021-08-25T08:20:30.708Z</time>
      </trkpt>
      <trkpt lat="45.28222" lon="5.58969">
        <ele>919.3</ele>
        <time>2021-08-25T08:20:32.322Z</time>
      </trkpt>
      <trkpt lat="45.28234" lon="5.58962">
        <ele>919.5</ele>
        <time>2021-08-25T08:20:34.542Z</time>
      </trkpt>
      <trkpt lat="45.28248" lon="5.58958">
        <ele>919.9</ele>
        <time>2021-08-25T08:20:37.227Z</time>
      </trkpt>
      <trkpt lat="45.28261" lon="5.58959">
        <ele>920.3</ele>
        <time>2021-08-25T08:20:39.754Z</time>
      </trkpt>
      <trkpt lat="45.28266" lon="5.58949">
        <ele>919.7</ele>
        <time>2021-08-25T08:20:40.446Z</time>
      </trkpt>
      <trkpt lat="45.28272" lon="5.58939">
        <ele>919.1</ele>
        <time>2021-08-25T08:20:41.091Z</time>
      </trkpt>
      <trkpt lat="45.28278" lon="5.58928">
        <ele>918.5</ele>
        <time>2021-08-25T08:20:41.814Z</time>
      </trkpt>
      <trkpt lat="45.28283" lon="5.58912">
        <ele>917.7</ele>
        <time>2021-08-25T08:20:42.721Z</time>
      </trkpt>
      <trkpt lat="45.28295" lon="5.58896">
        <ele>917.6</ele>
        <time>2021-08-25T08:20:44.797Z</time>
      </trkpt>
      <trkpt lat="45.28302" lon="5.5889">
        <ele>917.6</ele>
        <time>2021-08-25T08:20:45.963Z</time>
      </trkpt>
      <trkpt lat="45.28311" lon="5.5888">
        <ele>917.6</ele>
        <time>2021-08-25T08:20:47.642Z</time>
      </trkpt>
      <trkpt lat="45.28316" lon="5.58866">
        <ele>917.4</ele>
        <time>2021-08-25T08:20:48.784Z</time>
      </trkpt>
      <trkpt lat="45.28318" lon="5.58855">
        <ele>917.1</ele>
        <time>2021-08-25T08:20:49.592Z</time>
      </trkpt>
      <trkpt lat="45.28324" lon="5.58846">
        <ele>917.1</ele>
        <time>2021-08-25T08:20:50.837Z</time>
      </trkpt>
      <trkpt lat="45.28329" lon="5.58835">
        <ele>916.9</ele>
        <time>2021-08-25T08:20:51.796Z</time>
      </trkpt>
      <trkpt lat="45.28333" lon="5.58826">
        <ele>916.3</ele>
        <time>2021-08-25T08:20:52.372Z</time>
      </trkpt>
      <trkpt lat="45.28338" lon="5.58816">
        <ele>914.9</ele>
        <time>2021-08-25T08:20:53.064Z</time>
      </trkpt>
      <trkpt lat="45.2834" lon="5.58803">
        <ele>913.4</ele>
        <time>2021-08-25T08:20:53.818Z</time>
      </trkpt>
      <trkpt lat="45.28336" lon="5.58789">
        <ele>912.5</ele>
        <time>2021-08-25T08:20:54.620Z</time>
      </trkpt>
      <trkpt lat="45.28331" lon="5.58778">
        <ele>911.6</ele>
        <time>2021-08-25T08:20:55.354Z</time>
      </trkpt>
      <trkpt lat="45.28332" lon="5.58761">
        <ele>910</ele>
        <time>2021-08-25T08:20:56.272Z</time>
      </trkpt>
      <trkpt lat="45.28334" lon="5.58747">
        <ele>908.5</ele>
        <time>2021-08-25T08:20:57.046Z</time>
      </trkpt>
      <trkpt lat="45.28333" lon="5.58733">
        <ele>906.3</ele>
        <time>2021-08-25T08:20:57.826Z</time>
      </trkpt>
      <trkpt lat="45.28332" lon="5.58721">
        <ele>904.4</ele>
        <time>2021-08-25T08:20:58.507Z</time>
      </trkpt>
      <trkpt lat="45.28328" lon="5.58706">
        <ele>902.1</ele>
        <time>2021-08-25T08:20:59.396Z</time>
      </trkpt>
      <trkpt lat="45.28322" lon="5.58693">
        <ele>900.3</ele>
        <time>2021-08-25T08:21:00.241Z</time>
      </trkpt>
      <trkpt lat="45.28319" lon="5.58677">
        <ele>898.1</ele>
        <time>2021-08-25T08:21:01.136Z</time>
      </trkpt>
      <trkpt lat="45.2831" lon="5.5866">
        <ele>895.7</ele>
        <time>2021-08-25T08:21:02.295Z</time>
      </trkpt>
      <trkpt lat="45.28301" lon="5.58653">
        <ele>894.9</ele>
        <time>2021-08-25T08:21:03.071Z</time>
      </trkpt>
      <trkpt lat="45.28291" lon="5.58641">
        <ele>893.6</ele>
        <time>2021-08-25T08:21:04.100Z</time>
      </trkpt>
      <trkpt lat="45.28287" lon="5.58627">
        <ele>891.6</ele>
        <time>2021-08-25T08:21:04.930Z</time>
      </trkpt>
      <trkpt lat="45.2828" lon="5.58611">
        <ele>889.6</ele>
        <time>2021-08-25T08:21:05.993Z</time>
      </trkpt>
      <trkpt lat="45.2828" lon="5.58596">
        <ele>887.4</ele>
        <time>2021-08-25T08:21:06.801Z</time>
      </trkpt>
      <trkpt lat="45.28282" lon="5.58586">
        <ele>885.7</ele>
        <time>2021-08-25T08:21:07.387Z</time>
      </trkpt>
      <trkpt lat="45.2828" lon="5.58574">
        <ele>884.4</ele>
        <time>2021-08-25T08:21:08.066Z</time>
      </trkpt>
      <trkpt lat="45.2828" lon="5.58562">
        <ele>883.1</ele>
        <time>2021-08-25T08:21:08.725Z</time>
      </trkpt>
      <trkpt lat="45.28276" lon="5.58552">
        <ele>882.4</ele>
        <time>2021-08-25T08:21:09.353Z</time>
      </trkpt>
      <trkpt lat="45.28276" lon="5.58541">
        <ele>881.3</ele>
        <time>2021-08-25T08:21:09.952Z</time>
      </trkpt>
      <trkpt lat="45.28278" lon="5.58529">
        <ele>879.8</ele>
        <time>2021-08-25T08:21:10.613Z</time>
      </trkpt>
      <trkpt lat="45.28286" lon="5.58524">
        <ele>878.4</ele>
        <time>2021-08-25T08:21:11.244Z</time>
      </trkpt>
      <trkpt lat="45.28293" lon="5.58522">
        <ele>877.4</ele>
        <time>2021-08-25T08:21:11.851Z</time>
      </trkpt>
      <trkpt lat="45.28301" lon="5.58524">
        <ele>876.7</ele>
        <time>2021-08-25T08:21:12.453Z</time>
      </trkpt>
      <trkpt lat="45.28309" lon="5.58525">
        <ele>875.9</ele>
        <time>2021-08-25T08:21:13.109Z</time>
      </trkpt>
      <trkpt lat="45.28316" lon="5.58525">
        <ele>875.1</ele>
        <time>2021-08-25T08:21:13.640Z</time>
      </trkpt>
      <trkpt lat="45.28324" lon="5.58523">
        <ele>874</ele>
        <time>2021-08-25T08:21:14.293Z</time>
      </trkpt>
      <trkpt lat="45.28332" lon="5.58518">
        <ele>872.5</ele>
        <time>2021-08-25T08:21:14.975Z</time>
      </trkpt>
      <trkpt lat="45.28337" lon="5.58505">
        <ele>870.1</ele>
        <time>2021-08-25T08:21:15.765Z</time>
      </trkpt>
      <trkpt lat="45.28339" lon="5.58495">
        <ele>868.3</ele>
        <time>2021-08-25T08:21:16.334Z</time>
      </trkpt>
      <trkpt lat="45.28344" lon="5.58483">
        <ele>865.2</ele>
        <time>2021-08-25T08:21:17.152Z</time>
      </trkpt>
      <trkpt lat="45.2835" lon="5.58474">
        <ele>862.9</ele>
        <time>2021-08-25T08:21:17.793Z</time>
      </trkpt>
      <trkpt lat="45.28347" lon="5.58461">
        <ele>860.8</ele>
        <time>2021-08-25T08:21:18.546Z</time>
      </trkpt>
      <trkpt lat="45.28346" lon="5.58447">
        <ele>858.4</ele>
        <time>2021-08-25T08:21:19.307Z</time>
      </trkpt>
      <trkpt lat="45.28344" lon="5.58436">
        <ele>856.5</ele>
        <time>2021-08-25T08:21:19.929Z</time>
      </trkpt>
      <trkpt lat="45.28345" lon="5.58425">
        <ele>854.3</ele>
        <time>2021-08-25T08:21:20.553Z</time>
      </trkpt>
      <trkpt lat="45.28349" lon="5.58413">
        <ele>851.9</ele>
        <time>2021-08-25T08:21:21.229Z</time>
      </trkpt>
      <trkpt lat="45.28354" lon="5.584">
        <ele>849</ele>
        <time>2021-08-25T08:21:22.080Z</time>
      </trkpt>
      <trkpt lat="45.28359" lon="5.58389">
        <ele>846.6</ele>
        <time>2021-08-25T08:21:22.804Z</time>
      </trkpt>
      <trkpt lat="45.28363" lon="5.58379">
        <ele>844.5</ele>
        <time>2021-08-25T08:21:23.422Z</time>
      </trkpt>
      <trkpt lat="45.28364" lon="5.58366">
        <ele>842.3</ele>
        <time>2021-08-25T08:21:24.117Z</time>
      </trkpt>
      <trkpt lat="45.2836" lon="5.58352">
        <ele>839.9</ele>
        <time>2021-08-25T08:21:24.980Z</time>
      </trkpt>
      <trkpt lat="45.28355" lon="5.58337">
        <ele>837.7</ele>
        <time>2021-08-25T08:21:25.862Z</time>
      </trkpt>
      <trkpt lat="45.28351" lon="5.58327">
        <ele>836.6</ele>
        <time>2021-08-25T08:21:26.492Z</time>
      </trkpt>
      <trkpt lat="45.2835" lon="5.58312">
        <ele>835.3</ele>
        <time>2021-08-25T08:21:27.326Z</time>
      </trkpt>
      <trkpt lat="45.28345" lon="5.58299">
        <ele>834.5</ele>
        <time>2021-08-25T08:21:28.112Z</time>
      </trkpt>
      <trkpt lat="45.28344" lon="5.58288">
        <ele>833.6</ele>
        <time>2021-08-25T08:21:28.723Z</time>
      </trkpt>
      <trkpt lat="45.28342" lon="5.58278">
        <ele>832.8</ele>
        <time>2021-08-25T08:21:29.325Z</time>
      </trkpt>
      <trkpt lat="45.28341" lon="5.58266">
        <ele>831.8</ele>
        <time>2021-08-25T08:21:29.997Z</time>
      </trkpt>
      <trkpt lat="45.28338" lon="5.58249">
        <ele>830.5</ele>
        <time>2021-08-25T08:21:30.965Z</time>
      </trkpt>
      <trkpt lat="45.28342" lon="5.58238">
        <ele>828.9</ele>
        <time>2021-08-25T08:21:31.611Z</time>
      </trkpt>
      <trkpt lat="45.28352" lon="5.58233">
        <ele>827.6</ele>
        <time>2021-08-25T08:21:32.418Z</time>
      </trkpt>
      <trkpt lat="45.2836" lon="5.58224">
        <ele>825.8</ele>
        <time>2021-08-25T08:21:33.205Z</time>
      </trkpt>
      <trkpt lat="45.28364" lon="5.58209">
        <ele>823.4</ele>
        <time>2021-08-25T08:21:34.131Z</time>
      </trkpt>
      <trkpt lat="45.28363" lon="5.58195">
        <ele>821.8</ele>
        <time>2021-08-25T08:21:34.880Z</time>
      </trkpt>
      <trkpt lat="45.28361" lon="5.58184">
        <ele>820.5</ele>
        <time>2021-08-25T08:21:35.532Z</time>
      </trkpt>
      <trkpt lat="45.28357" lon="5.58171">
        <ele>819.3</ele>
        <time>2021-08-25T08:21:36.283Z</time>
      </trkpt>
      <trkpt lat="45.2835" lon="5.58156">
        <ele>818.1</ele>
        <time>2021-08-25T08:21:37.271Z</time>
      </trkpt>
      <trkpt lat="45.28343" lon="5.58145">
        <ele>817.2</ele>
        <time>2021-08-25T08:21:38.109Z</time>
      </trkpt>
      <trkpt lat="45.28338" lon="5.5813">
        <ele>815.8</ele>
        <time>2021-08-25T08:21:38.971Z</time>
      </trkpt>
      <trkpt lat="45.28337" lon="5.58113">
        <ele>813.5</ele>
        <time>2021-08-25T08:21:39.961Z</time>
      </trkpt>
      <trkpt lat="45.28333" lon="5.58095">
        <ele>811.6</ele>
        <time>2021-08-25T08:21:40.941Z</time>
      </trkpt>
      <trkpt lat="45.2833" lon="5.58083">
        <ele>810.3</ele>
        <time>2021-08-25T08:21:41.679Z</time>
      </trkpt>
      <trkpt lat="45.28324" lon="5.58068">
        <ele>808</ele>
        <time>2021-08-25T08:21:42.632Z</time>
      </trkpt>
      <trkpt lat="45.28312" lon="5.58055">
        <ele>806.6</ele>
        <time>2021-08-25T08:21:43.769Z</time>
      </trkpt>
      <trkpt lat="45.28307" lon="5.5804">
        <ele>804.2</ele>
        <time>2021-08-25T08:21:44.724Z</time>
      </trkpt>
      <trkpt lat="45.28306" lon="5.58021">
        <ele>800.8</ele>
        <time>2021-08-25T08:21:45.726Z</time>
      </trkpt>
      <trkpt lat="45.28302" lon="5.58001">
        <ele>797</ele>
        <time>2021-08-25T08:21:46.888Z</time>
      </trkpt>
      <trkpt lat="45.28302" lon="5.57987">
        <ele>795.5</ele>
        <time>2021-08-25T08:21:47.663Z</time>
      </trkpt>
      <trkpt lat="45.28299" lon="5.57975">
        <ele>794.5</ele>
        <time>2021-08-25T08:21:48.314Z</time>
      </trkpt>
      <trkpt lat="45.28292" lon="5.57965">
        <ele>793.8</ele>
        <time>2021-08-25T08:21:49.118Z</time>
      </trkpt>
      <trkpt lat="45.28285" lon="5.57948">
        <ele>792</ele>
        <time>2021-08-25T08:21:50.196Z</time>
      </trkpt>
      <trkpt lat="45.28281" lon="5.57928">
        <ele>789.6</ele>
        <time>2021-08-25T08:21:51.385Z</time>
      </trkpt>
      <trkpt lat="45.28257" lon="5.57921">
        <ele>788.7</ele>
        <time>2021-08-25T08:21:53.567Z</time>
      </trkpt>
      <trkpt lat="45.28249" lon="5.57917">
        <ele>788.2</ele>
        <time>2021-08-25T08:21:54.284Z</time>
      </trkpt>
      <trkpt lat="45.28235" lon="5.57922">
        <ele>789.9</ele>
        <time>2021-08-25T08:22:00.874Z</time>
      </trkpt>
      <trkpt lat="45.28225" lon="5.57915">
        <ele>789.6</ele>
        <time>2021-08-25T08:22:02.049Z</time>
      </trkpt>
      <trkpt lat="45.28213" lon="5.579">
        <ele>789.3</ele>
        <time>2021-08-25T08:22:03.902Z</time>
      </trkpt>
      <trkpt lat="45.28205" lon="5.57884">
        <ele>788.5</ele>
        <time>2021-08-25T08:22:04.960Z</time>
      </trkpt>
      <trkpt lat="45.28199" lon="5.57878">
        <ele>788.2</ele>
        <time>2021-08-25T08:22:05.612Z</time>
      </trkpt>
      <trkpt lat="45.2819" lon="5.57869">
        <ele>787.8</ele>
        <time>2021-08-25T08:22:06.624Z</time>
      </trkpt>
      <trkpt lat="45.2818" lon="5.57861">
        <ele>787.5</ele>
        <time>2021-08-25T08:22:07.838Z</time>
      </trkpt>
      <trkpt lat="45.28173" lon="5.57851">
        <ele>786.7</ele>
        <time>2021-08-25T08:22:08.611Z</time>
      </trkpt>
      <trkpt lat="45.28167" lon="5.57842">
        <ele>785.9</ele>
        <time>2021-08-25T08:22:09.284Z</time>
      </trkpt>
      <trkpt lat="45.28161" lon="5.57828">
        <ele>784.4</ele>
        <time>2021-08-25T08:22:10.161Z</time>
      </trkpt>
      <trkpt lat="45.28158" lon="5.57818">
        <ele>783.2</ele>
        <time>2021-08-25T08:22:10.773Z</time>
      </trkpt>
      <trkpt lat="45.28154" lon="5.57804">
        <ele>781.6</ele>
        <time>2021-08-25T08:22:11.560Z</time>
      </trkpt>
      <trkpt lat="45.28154" lon="5.57792">
        <ele>780</ele>
        <time>2021-08-25T08:22:12.238Z</time>
      </trkpt>
      <trkpt lat="45.28155" lon="5.57781">
        <ele>778.4</ele>
        <time>2021-08-25T08:22:12.857Z</time>
      </trkpt>
      <trkpt lat="45.28155" lon="5.57771">
        <ele>777</ele>
        <time>2021-08-25T08:22:13.435Z</time>
      </trkpt>
      <trkpt lat="45.28149" lon="5.57759">
        <ele>776.1</ele>
        <time>2021-08-25T08:22:14.225Z</time>
      </trkpt>
      <trkpt lat="45.28142" lon="5.57751">
        <ele>775.7</ele>
        <time>2021-08-25T08:22:14.984Z</time>
      </trkpt>
      <trkpt lat="45.28137" lon="5.5774">
        <ele>774</ele>
        <time>2021-08-25T08:22:15.693Z</time>
      </trkpt>
      <trkpt lat="45.2813" lon="5.57729">
        <ele>772.5</ele>
        <time>2021-08-25T08:22:16.492Z</time>
      </trkpt>
      <trkpt lat="45.28119" lon="5.57718">
        <ele>771.9</ele>
        <time>2021-08-25T08:22:17.687Z</time>
      </trkpt>
      <trkpt lat="45.28112" lon="5.57712">
        <ele>771.8</ele>
        <time>2021-08-25T08:22:18.723Z</time>
      </trkpt>
      <trkpt lat="45.28106" lon="5.57704">
        <ele>771.2</ele>
        <time>2021-08-25T08:22:19.337Z</time>
      </trkpt>
      <trkpt lat="45.28099" lon="5.577">
        <ele>771.7</ele>
        <time>2021-08-25T08:22:21.466Z</time>
      </trkpt>
      <trkpt lat="45.28091" lon="5.57697">
        <ele>772.4</ele>
        <time>2021-08-25T08:22:24.102Z</time>
      </trkpt>
      <trkpt lat="45.28084" lon="5.5769">
        <ele>772.5</ele>
        <time>2021-08-25T08:22:25.373Z</time>
      </trkpt>
      <trkpt lat="45.28077" lon="5.57684">
        <ele>772.8</ele>
        <time>2021-08-25T08:22:27.150Z</time>
      </trkpt>
      <trkpt lat="45.28068" lon="5.57685">
        <ele>774.4</ele>
        <time>2021-08-25T08:22:32.299Z</time>
      </trkpt>
      <trkpt lat="45.28059" lon="5.57682">
        <ele>775.4</ele>
        <time>2021-08-25T08:22:36.040Z</time>
      </trkpt>
      <trkpt lat="45.28046" lon="5.57659">
        <ele>774.9</ele>
        <time>2021-08-25T08:22:38.259Z</time>
      </trkpt>
      <trkpt lat="45.28044" lon="5.57616">
        <ele>770.3</ele>
        <time>2021-08-25T08:22:40.649Z</time>
      </trkpt>
      <trkpt lat="45.28047" lon="5.57579">
        <ele>765.3</ele>
        <time>2021-08-25T08:22:42.663Z</time>
      </trkpt>
      <trkpt lat="45.28046" lon="5.57565">
        <ele>762.8</ele>
        <time>2021-08-25T08:22:43.461Z</time>
      </trkpt>
      <trkpt lat="45.28045" lon="5.57552">
        <ele>760.6</ele>
        <time>2021-08-25T08:22:44.169Z</time>
      </trkpt>
      <trkpt lat="45.28045" lon="5.57536">
        <ele>757.7</ele>
        <time>2021-08-25T08:22:45.053Z</time>
      </trkpt>
      <trkpt lat="45.28042" lon="5.57523">
        <ele>756</ele>
        <time>2021-08-25T08:22:45.798Z</time>
      </trkpt>
      <trkpt lat="45.28036" lon="5.57507">
        <ele>754.7</ele>
        <time>2021-08-25T08:22:46.814Z</time>
      </trkpt>
      <trkpt lat="45.28029" lon="5.57487">
        <ele>752.3</ele>
        <time>2021-08-25T08:22:48.026Z</time>
      </trkpt>
      <trkpt lat="45.28018" lon="5.57471">
        <ele>751.5</ele>
        <time>2021-08-25T08:22:49.306Z</time>
      </trkpt>
      <trkpt lat="45.28006" lon="5.57453">
        <ele>750.9</ele>
        <time>2021-08-25T08:22:50.945Z</time>
      </trkpt>
      <trkpt lat="45.27997" lon="5.57441">
        <ele>750.6</ele>
        <time>2021-08-25T08:22:52.238Z</time>
      </trkpt>
      <trkpt lat="45.2798" lon="5.57411">
        <ele>746.4</ele>
        <time>2021-08-25T08:22:54.359Z</time>
      </trkpt>
      <trkpt lat="45.2797" lon="5.57396">
        <ele>744.2</ele>
        <time>2021-08-25T08:22:55.485Z</time>
      </trkpt>
      <trkpt lat="45.27962" lon="5.57387">
        <ele>743.1</ele>
        <time>2021-08-25T08:22:56.271Z</time>
      </trkpt>
      <trkpt lat="45.27959" lon="5.57376">
        <ele>740.8</ele>
        <time>2021-08-25T08:22:56.937Z</time>
      </trkpt>
      <trkpt lat="45.27952" lon="5.57357">
        <ele>737.1</ele>
        <time>2021-08-25T08:22:58.105Z</time>
      </trkpt>
      <trkpt lat="45.27947" lon="5.57344">
        <ele>734.7</ele>
        <time>2021-08-25T08:22:58.895Z</time>
      </trkpt>
      <trkpt lat="45.27942" lon="5.57332">
        <ele>732.4</ele>
        <time>2021-08-25T08:22:59.686Z</time>
      </trkpt>
      <trkpt lat="45.27938" lon="5.57319">
        <ele>730.3</ele>
        <time>2021-08-25T08:23:00.488Z</time>
      </trkpt>
      <trkpt lat="45.27934" lon="5.57305">
        <ele>728</ele>
        <time>2021-08-25T08:23:01.289Z</time>
      </trkpt>
      <trkpt lat="45.27928" lon="5.57293">
        <ele>726.3</ele>
        <time>2021-08-25T08:23:02.133Z</time>
      </trkpt>
      <trkpt lat="45.27917" lon="5.57276">
        <ele>724.2</ele>
        <time>2021-08-25T08:23:03.377Z</time>
      </trkpt>
      <trkpt lat="45.27909" lon="5.57261">
        <ele>721.7</ele>
        <time>2021-08-25T08:23:04.425Z</time>
      </trkpt>
      <trkpt lat="45.27901" lon="5.57246">
        <ele>719.5</ele>
        <time>2021-08-25T08:23:05.441Z</time>
      </trkpt>
      <trkpt lat="45.27892" lon="5.57233">
        <ele>717.8</ele>
        <time>2021-08-25T08:23:06.432Z</time>
      </trkpt>
      <trkpt lat="45.27884" lon="5.57221">
        <ele>716.2</ele>
        <time>2021-08-25T08:23:07.359Z</time>
      </trkpt>
      <trkpt lat="45.27879" lon="5.57212">
        <ele>714.9</ele>
        <time>2021-08-25T08:23:07.979Z</time>
      </trkpt>
      <trkpt lat="45.27874" lon="5.57205">
        <ele>713.9</ele>
        <time>2021-08-25T08:23:08.520Z</time>
      </trkpt>
      <trkpt lat="45.2787" lon="5.57192">
        <ele>711.8</ele>
        <time>2021-08-25T08:23:09.301Z</time>
      </trkpt>
      <trkpt lat="45.2786" lon="5.57179">
        <ele>709.7</ele>
        <time>2021-08-25T08:23:10.362Z</time>
      </trkpt>
      <trkpt lat="45.27853" lon="5.57168">
        <ele>707.8</ele>
        <time>2021-08-25T08:23:11.167Z</time>
      </trkpt>
      <trkpt lat="45.27847" lon="5.57154">
        <ele>705</ele>
        <time>2021-08-25T08:23:12.061Z</time>
      </trkpt>
      <trkpt lat="45.27847" lon="5.57143">
        <ele>702.8</ele>
        <time>2021-08-25T08:23:12.664Z</time>
      </trkpt>
      <trkpt lat="45.27843" lon="5.57129">
        <ele>700.1</ele>
        <time>2021-08-25T08:23:13.462Z</time>
      </trkpt>
      <trkpt lat="45.27844" lon="5.5712">
        <ele>698.2</ele>
        <time>2021-08-25T08:23:13.975Z</time>
      </trkpt>
      <trkpt lat="45.27845" lon="5.57107">
        <ele>695.7</ele>
        <time>2021-08-25T08:23:14.669Z</time>
      </trkpt>
      <trkpt lat="45.27843" lon="5.57094">
        <ele>692.9</ele>
        <time>2021-08-25T08:23:15.418Z</time>
      </trkpt>
      <trkpt lat="45.27845" lon="5.57093">
        <ele>692.9</ele>
        <time>2021-08-25T08:23:15.637Z</time>
      </trkpt>
      <trkpt lat="45.27828" lon="5.57055">
        <ele>686.8</ele>
        <time>2021-08-25T08:23:18.107Z</time>
      </trkpt>
      <trkpt lat="45.27815" lon="5.57041">
        <ele>684.6</ele>
        <time>2021-08-25T08:23:19.385Z</time>
      </trkpt>
      <trkpt lat="45.27808" lon="5.57027">
        <ele>682.5</ele>
        <time>2021-08-25T08:23:20.300Z</time>
      </trkpt>
      <trkpt lat="45.27805" lon="5.57006">
        <ele>679.5</ele>
        <time>2021-08-25T08:23:21.503Z</time>
      </trkpt>
      <trkpt lat="45.2778" lon="5.56974">
        <ele>676.5</ele>
        <time>2021-08-25T08:23:24.141Z</time>
      </trkpt>
      <trkpt lat="45.27749" lon="5.56935">
        <ele>674.2</ele>
        <time>2021-08-25T08:23:27.357Z</time>
      </trkpt>
      <trkpt lat="45.27725" lon="5.56884">
        <ele>675.1</ele>
        <time>2021-08-25T08:23:34.899Z</time>
      </trkpt>
      <trkpt lat="45.27673" lon="5.56843">
        <ele>675.8</ele>
        <time>2021-08-25T08:23:44.425Z</time>
      </trkpt>
      <trkpt lat="45.27634" lon="5.56801">
        <ele>674.6</ele>
        <time>2021-08-25T08:23:49.454Z</time>
      </trkpt>
      <trkpt lat="45.27609" lon="5.56776">
        <ele>673.4</ele>
        <time>2021-08-25T08:23:52.266Z</time>
      </trkpt>
      <trkpt lat="45.27566" lon="5.56756">
        <ele>672.7</ele>
        <time>2021-08-25T08:23:57.469Z</time>
      </trkpt>
      <trkpt lat="45.27532" lon="5.56728">
        <ele>673.4</ele>
        <time>2021-08-25T08:24:04.197Z</time>
      </trkpt>
      <trkpt lat="45.27483" lon="5.56662">
        <ele>666.1</ele>
        <time>2021-08-25T08:24:09.406Z</time>
      </trkpt>
      <trkpt lat="45.27447" lon="5.5663">
        <ele>659.6</ele>
        <time>2021-08-25T08:24:12.742Z</time>
      </trkpt>
      <trkpt lat="45.27394" lon="5.56601">
        <ele>657.3</ele>
        <time>2021-08-25T08:24:17.789Z</time>
      </trkpt>
      <trkpt lat="45.2736" lon="5.56579">
        <ele>659.7</ele>
        <time>2021-08-25T08:24:28.107Z</time>
      </trkpt>
      <trkpt lat="45.27326" lon="5.56544">
        <ele>658.9</ele>
        <time>2021-08-25T08:24:32.680Z</time>
      </trkpt>
      <trkpt lat="45.27286" lon="5.565">
        <ele>653.4</ele>
        <time>2021-08-25T08:24:36.629Z</time>
      </trkpt>
      <trkpt lat="45.27252" lon="5.56465">
        <ele>651.7</ele>
        <time>2021-08-25T08:24:40.392Z</time>
      </trkpt>
      <trkpt lat="45.27228" lon="5.5644">
        <ele>650.9</ele>
        <time>2021-08-25T08:24:43.437Z</time>
      </trkpt>
      <trkpt lat="45.27198" lon="5.56402">
        <ele>649.6</ele>
        <time>2021-08-25T08:24:47.378Z</time>
      </trkpt>
      <trkpt lat="45.27178" lon="5.5637">
        <ele>649.6</ele>
        <time>2021-08-25T08:24:51.621Z</time>
      </trkpt>
      <trkpt lat="45.27149" lon="5.56319">
        <ele>656.3</ele>
        <time>2021-08-25T08:25:16.796Z</time>
      </trkpt>
      <trkpt lat="45.27142" lon="5.56253">
        <ele>663.2</ele>
        <time>2021-08-25T08:25:42.501Z</time>
      </trkpt>
      <trkpt lat="45.27147" lon="5.56191">
        <ele>664</ele>
        <time>2021-08-25T08:25:49.969Z</time>
      </trkpt>
      <trkpt lat="45.27144" lon="5.56132">
        <ele>659.8</ele>
        <time>2021-08-25T08:25:53.186Z</time>
      </trkpt>
      <trkpt lat="45.27135" lon="5.56085">
        <ele>654.8</ele>
        <time>2021-08-25T08:25:55.890Z</time>
      </trkpt>
      <trkpt lat="45.27109" lon="5.56051">
        <ele>655.3</ele>
        <time>2021-08-25T08:26:01.627Z</time>
      </trkpt>
      <trkpt lat="45.27081" lon="5.56024">
        <ele>656.2</ele>
        <time>2021-08-25T08:26:07.932Z</time>
      </trkpt>
      <trkpt lat="45.27057" lon="5.5599">
        <ele>656.3</ele>
        <time>2021-08-25T08:26:12.901Z</time>
      </trkpt>
      <trkpt lat="45.2704" lon="5.55943">
        <ele>654.6</ele>
        <time>2021-08-25T08:26:16.068Z</time>
      </trkpt>
      <trkpt lat="45.27044" lon="5.55886">
        <ele>647.1</ele>
        <time>2021-08-25T08:26:19.173Z</time>
      </trkpt>
      <trkpt lat="45.27042" lon="5.55859">
        <ele>643.8</ele>
        <time>2021-08-25T08:26:20.648Z</time>
      </trkpt>
      <trkpt lat="45.27036" lon="5.55832">
        <ele>641.3</ele>
        <time>2021-08-25T08:26:22.260Z</time>
      </trkpt>
      <trkpt lat="45.27025" lon="5.55792">
        <ele>638.6</ele>
        <time>2021-08-25T08:26:24.586Z</time>
      </trkpt>
      <trkpt lat="45.27016" lon="5.55776">
        <ele>638.2</ele>
        <time>2021-08-25T08:26:25.999Z</time>
      </trkpt>
      <trkpt lat="45.27" lon="5.55744">
        <ele>637</ele>
        <time>2021-08-25T08:26:28.490Z</time>
      </trkpt>
      <trkpt lat="45.26996" lon="5.55725">
        <ele>633.9</ele>
        <time>2021-08-25T08:26:29.526Z</time>
      </trkpt>
      <trkpt lat="45.26994" lon="5.55713">
        <ele>631.9</ele>
        <time>2021-08-25T08:26:30.227Z</time>
      </trkpt>
      <trkpt lat="45.26995" lon="5.55707">
        <ele>631.1</ele>
        <time>2021-08-25T08:26:30.552Z</time>
      </trkpt>
      <trkpt lat="45.26992" lon="5.55699">
        <ele>629.8</ele>
        <time>2021-08-25T08:26:31.056Z</time>
      </trkpt>
      <trkpt lat="45.2699" lon="5.5569">
        <ele>628.6</ele>
        <time>2021-08-25T08:26:31.550Z</time>
      </trkpt>
      <trkpt lat="45.26979" lon="5.55661">
        <ele>625.2</ele>
        <time>2021-08-25T08:26:33.344Z</time>
      </trkpt>
      <trkpt lat="45.26951" lon="5.55629">
        <ele>625.4</ele>
        <time>2021-08-25T08:26:38.783Z</time>
      </trkpt>
      <trkpt lat="45.26971" lon="5.55619">
        <ele>621.9</ele>
        <time>2021-08-25T08:26:40.498Z</time>
      </trkpt>
      <trkpt lat="45.26954" lon="5.55603">
        <ele>623.9</ele>
        <time>2021-08-25T08:26:47.869Z</time>
      </trkpt>
      <trkpt lat="45.26931" lon="5.55586">
        <ele>628.4</ele>
        <time>2021-08-25T08:27:01.822Z</time>
      </trkpt>
      <trkpt lat="45.26913" lon="5.55579">
        <ele>632.6</ele>
        <time>2021-08-25T08:27:12.273Z</time>
      </trkpt>
      <trkpt lat="45.26895" lon="5.55572">
        <ele>635.9</ele>
        <time>2021-08-25T08:27:22.485Z</time>
      </trkpt>
      <trkpt lat="45.26895" lon="5.5554">
        <ele>634.3</ele>
        <time>2021-08-25T08:27:24.254Z</time>
      </trkpt>
      <trkpt lat="45.26891" lon="5.55509">
        <ele>633.5</ele>
        <time>2021-08-25T08:27:26.332Z</time>
      </trkpt>
      <trkpt lat="45.26888" lon="5.55475">
        <ele>630.3</ele>
        <time>2021-08-25T08:27:28.203Z</time>
      </trkpt>
      <trkpt lat="45.26882" lon="5.55451">
        <ele>628.4</ele>
        <time>2021-08-25T08:27:29.648Z</time>
      </trkpt>
      <trkpt lat="45.26877" lon="5.55429">
        <ele>626.5</ele>
        <time>2021-08-25T08:27:30.899Z</time>
      </trkpt>
      <trkpt lat="45.26873" lon="5.55408">
        <ele>625.1</ele>
        <time>2021-08-25T08:27:32.110Z</time>
      </trkpt>
      <trkpt lat="45.26868" lon="5.55393">
        <ele>624.3</ele>
        <time>2021-08-25T08:27:32.997Z</time>
      </trkpt>
      <trkpt lat="45.26865" lon="5.5538">
        <ele>623.9</ele>
        <time>2021-08-25T08:27:33.827Z</time>
      </trkpt>
      <trkpt lat="45.2686" lon="5.5537">
        <ele>623.9</ele>
        <time>2021-08-25T08:27:35.074Z</time>
      </trkpt>
      <trkpt lat="45.26855" lon="5.55359">
        <ele>624.1</ele>
        <time>2021-08-25T08:27:36.702Z</time>
      </trkpt>
      <trkpt lat="45.26846" lon="5.55349">
        <ele>625.3</ele>
        <time>2021-08-25T08:27:41.128Z</time>
      </trkpt>
      <trkpt lat="45.26832" lon="5.55344">
        <ele>628.2</ele>
        <time>2021-08-25T08:27:49.028Z</time>
      </trkpt>
      <trkpt lat="45.26823" lon="5.55341">
        <ele>629.6</ele>
        <time>2021-08-25T08:27:54.157Z</time>
      </trkpt>
      <trkpt lat="45.26813" lon="5.55328">
        <ele>629.6</ele>
        <time>2021-08-25T08:27:55.959Z</time>
      </trkpt>
      <trkpt lat="45.26805" lon="5.55317">
        <ele>628.7</ele>
        <time>2021-08-25T08:27:56.905Z</time>
      </trkpt>
      <trkpt lat="45.26795" lon="5.55299">
        <ele>626.5</ele>
        <time>2021-08-25T08:27:58.110Z</time>
      </trkpt>
      <trkpt lat="45.26789" lon="5.55288">
        <ele>624.8</ele>
        <time>2021-08-25T08:27:58.924Z</time>
      </trkpt>
      <trkpt lat="45.26785" lon="5.55273">
        <ele>621.9</ele>
        <time>2021-08-25T08:27:59.754Z</time>
      </trkpt>
      <trkpt lat="45.26783" lon="5.55256">
        <ele>618.1</ele>
        <time>2021-08-25T08:28:00.748Z</time>
      </trkpt>
      <trkpt lat="45.26784" lon="5.55241">
        <ele>615</ele>
        <time>2021-08-25T08:28:01.578Z</time>
      </trkpt>
      <trkpt lat="45.2679" lon="5.55223">
        <ele>611.3</ele>
        <time>2021-08-25T08:28:02.669Z</time>
      </trkpt>
      <trkpt lat="45.26799" lon="5.55203">
        <ele>607.2</ele>
        <time>2021-08-25T08:28:03.949Z</time>
      </trkpt>
      <trkpt lat="45.26808" lon="5.55181">
        <ele>602.9</ele>
        <time>2021-08-25T08:28:05.330Z</time>
      </trkpt>
      <trkpt lat="45.2682" lon="5.55161">
        <ele>599.2</ele>
        <time>2021-08-25T08:28:06.780Z</time>
      </trkpt>
      <trkpt lat="45.26836" lon="5.55144">
        <ele>595.1</ele>
        <time>2021-08-25T08:28:08.326Z</time>
      </trkpt>
      <trkpt lat="45.26858" lon="5.55124">
        <ele>590.5</ele>
        <time>2021-08-25T08:28:10.345Z</time>
      </trkpt>
      <trkpt lat="45.26866" lon="5.55105">
        <ele>586.5</ele>
        <time>2021-08-25T08:28:11.596Z</time>
      </trkpt>
      <trkpt lat="45.26868" lon="5.55089">
        <ele>583.6</ele>
        <time>2021-08-25T08:28:12.449Z</time>
      </trkpt>
      <trkpt lat="45.26871" lon="5.55064">
        <ele>580.4</ele>
        <time>2021-08-25T08:28:13.861Z</time>
      </trkpt>
      <trkpt lat="45.26874" lon="5.55052">
        <ele>578.7</ele>
        <time>2021-08-25T08:28:14.565Z</time>
      </trkpt>
      <trkpt lat="45.26877" lon="5.55037">
        <ele>576.2</ele>
        <time>2021-08-25T08:28:15.401Z</time>
      </trkpt>
      <trkpt lat="45.26885" lon="5.5502">
        <ele>571.3</ele>
        <time>2021-08-25T08:28:16.539Z</time>
      </trkpt>
      <trkpt lat="45.26893" lon="5.55008">
        <ele>565.9</ele>
        <time>2021-08-25T08:28:17.467Z</time>
      </trkpt>
      <trkpt lat="45.26905" lon="5.54993">
        <ele>558.9</ele>
        <time>2021-08-25T08:28:18.713Z</time>
      </trkpt>
      <trkpt lat="45.26923" lon="5.54986">
        <ele>553.5</ele>
        <time>2021-08-25T08:28:20.111Z</time>
      </trkpt>
      <trkpt lat="45.26936" lon="5.54973">
        <ele>551.7</ele>
        <time>2021-08-25T08:28:21.422Z</time>
      </trkpt>
      <trkpt lat="45.26949" lon="5.54971">
        <ele>550.6</ele>
        <time>2021-08-25T08:28:22.394Z</time>
      </trkpt>
      <trkpt lat="45.26964" lon="5.54986">
        <ele>553.3</ele>
        <time>2021-08-25T08:28:32.408Z</time>
      </trkpt>
      <trkpt lat="45.26977" lon="5.55005">
        <ele>558.6</ele>
        <time>2021-08-25T08:28:42.497Z</time>
      </trkpt>
      <trkpt lat="45.26994" lon="5.55017">
        <ele>561.6</ele>
        <time>2021-08-25T08:28:53.007Z</time>
      </trkpt>
      <trkpt lat="45.27007" lon="5.55021">
        <ele>560.6</ele>
        <time>2021-08-25T08:28:54.051Z</time>
      </trkpt>
      <trkpt lat="45.27017" lon="5.55015">
        <ele>557</ele>
        <time>2021-08-25T08:28:54.900Z</time>
      </trkpt>
      <trkpt lat="45.27027" lon="5.55005">
        <ele>553</ele>
        <time>2021-08-25T08:28:55.821Z</time>
      </trkpt>
      <trkpt lat="45.27036" lon="5.54991">
        <ele>547.1</ele>
        <time>2021-08-25T08:28:56.843Z</time>
      </trkpt>
      <trkpt lat="45.27046" lon="5.54984">
        <ele>542.5</ele>
        <time>2021-08-25T08:28:57.720Z</time>
      </trkpt>
      <trkpt lat="45.2706" lon="5.54979">
        <ele>537.8</ele>
        <time>2021-08-25T08:28:58.872Z</time>
      </trkpt>
      <trkpt lat="45.27079" lon="5.54977">
        <ele>533.2</ele>
        <time>2021-08-25T08:29:00.394Z</time>
      </trkpt>
      <trkpt lat="45.27094" lon="5.5498">
        <ele>529.8</ele>
        <time>2021-08-25T08:29:01.557Z</time>
      </trkpt>
      <trkpt lat="45.27112" lon="5.54987">
        <ele>525.6</ele>
        <time>2021-08-25T08:29:02.988Z</time>
      </trkpt>
      <trkpt lat="45.27128" lon="5.55">
        <ele>522.9</ele>
        <time>2021-08-25T08:29:04.459Z</time>
      </trkpt>
      <trkpt lat="45.27148" lon="5.55021">
        <ele>518.7</ele>
        <time>2021-08-25T08:29:06.376Z</time>
      </trkpt>
      <trkpt lat="45.2716" lon="5.5504">
        <ele>516.5</ele>
        <time>2021-08-25T08:29:07.779Z</time>
      </trkpt>
      <trkpt lat="45.27173" lon="5.55073">
        <ele>515.6</ele>
        <time>2021-08-25T08:29:10.338Z</time>
      </trkpt>
      <trkpt lat="45.27177" lon="5.55096">
        <ele>515.9</ele>
        <time>2021-08-25T08:29:13.133Z</time>
      </trkpt>
      <trkpt lat="45.2719" lon="5.55122">
        <ele>512.6</ele>
        <time>2021-08-25T08:29:14.890Z</time>
      </trkpt>
      <trkpt lat="45.27201" lon="5.55145">
        <ele>509.6</ele>
        <time>2021-08-25T08:29:16.408Z</time>
      </trkpt>
      <trkpt lat="45.27214" lon="5.55166">
        <ele>505.3</ele>
        <time>2021-08-25T08:29:17.975Z</time>
      </trkpt>
      <trkpt lat="45.27222" lon="5.55185">
        <ele>502.9</ele>
        <time>2021-08-25T08:29:19.200Z</time>
      </trkpt>
      <trkpt lat="45.27227" lon="5.55197">
        <ele>501.6</ele>
        <time>2021-08-25T08:29:19.918Z</time>
      </trkpt>
      <trkpt lat="45.27238" lon="5.55207">
        <ele>497.9</ele>
        <time>2021-08-25T08:29:20.931Z</time>
      </trkpt>
      <trkpt lat="45.27249" lon="5.55207">
        <ele>494</ele>
        <time>2021-08-25T08:29:21.774Z</time>
      </trkpt>
      <trkpt lat="45.27265" lon="5.55198">
        <ele>487.4</ele>
        <time>2021-08-25T08:29:23.150Z</time>
      </trkpt>
      <trkpt lat="45.27279" lon="5.55177">
        <ele>481.6</ele>
        <time>2021-08-25T08:29:24.764Z</time>
      </trkpt>
      <trkpt lat="45.27289" lon="5.55151">
        <ele>477.2</ele>
        <time>2021-08-25T08:29:26.358Z</time>
      </trkpt>
      <trkpt lat="45.27293" lon="5.55132">
        <ele>475.2</ele>
        <time>2021-08-25T08:29:27.471Z</time>
      </trkpt>
      <trkpt lat="45.27306" lon="5.55112">
        <ele>469.9</ele>
        <time>2021-08-25T08:29:28.955Z</time>
      </trkpt>
      <trkpt lat="45.27308" lon="5.55095">
        <ele>468.8</ele>
        <time>2021-08-25T08:29:29.909Z</time>
      </trkpt>
      <trkpt lat="45.27308" lon="5.55072">
        <ele>467.5</ele>
        <time>2021-08-25T08:29:31.176Z</time>
      </trkpt>
      <trkpt lat="45.27311" lon="5.55049">
        <ele>464.6</ele>
        <time>2021-08-25T08:29:32.474Z</time>
      </trkpt>
      <trkpt lat="45.27312" lon="5.55021">
        <ele>462.2</ele>
        <time>2021-08-25T08:29:33.980Z</time>
      </trkpt>
      <trkpt lat="45.27312" lon="5.55">
        <ele>460.6</ele>
        <time>2021-08-25T08:29:35.161Z</time>
      </trkpt>
      <trkpt lat="45.27314" lon="5.54983">
        <ele>457.2</ele>
        <time>2021-08-25T08:29:36.076Z</time>
      </trkpt>
      <trkpt lat="45.27314" lon="5.54965">
        <ele>454</ele>
        <time>2021-08-25T08:29:37.071Z</time>
      </trkpt>
      <trkpt lat="45.27317" lon="5.54955">
        <ele>451.3</ele>
        <time>2021-08-25T08:29:37.667Z</time>
      </trkpt>
      <trkpt lat="45.27319" lon="5.5494">
        <ele>447.9</ele>
        <time>2021-08-25T08:29:38.499Z</time>
      </trkpt>
      <trkpt lat="45.27319" lon="5.54924">
        <ele>445.3</ele>
        <time>2021-08-25T08:29:39.400Z</time>
      </trkpt>
      <trkpt lat="45.2732" lon="5.54914">
        <ele>442.9</ele>
        <time>2021-08-25T08:29:39.959Z</time>
      </trkpt>
      <trkpt lat="45.2732" lon="5.54903">
        <ele>439.9</ele>
        <time>2021-08-25T08:29:40.520Z</time>
      </trkpt>
      <trkpt lat="45.2732" lon="5.54892">
        <ele>437.1</ele>
        <time>2021-08-25T08:29:41.141Z</time>
      </trkpt>
      <trkpt lat="45.27317" lon="5.54883">
        <ele>435.3</ele>
        <time>2021-08-25T08:29:41.700Z</time>
      </trkpt>
      <trkpt lat="45.27315" lon="5.54871">
        <ele>432.8</ele>
        <time>2021-08-25T08:29:42.336Z</time>
      </trkpt>
      <trkpt lat="45.27313" lon="5.54858">
        <ele>429.9</ele>
        <time>2021-08-25T08:29:43.101Z</time>
      </trkpt>
      <trkpt lat="45.27311" lon="5.54847">
        <ele>427.5</ele>
        <time>2021-08-25T08:29:43.708Z</time>
      </trkpt>
      <trkpt lat="45.27309" lon="5.54837">
        <ele>425</ele>
        <time>2021-08-25T08:29:44.281Z</time>
      </trkpt>
      <trkpt lat="45.27306" lon="5.54822">
        <ele>419.7</ele>
        <time>2021-08-25T08:29:45.110Z</time>
      </trkpt>
      <trkpt lat="45.27297" lon="5.54791">
        <ele>407.3</ele>
        <time>2021-08-25T08:29:46.960Z</time>
      </trkpt>
      <trkpt lat="45.27296" lon="5.54779">
        <ele>401.4</ele>
        <time>2021-08-25T08:29:47.672Z</time>
      </trkpt>
      <trkpt lat="45.27292" lon="5.54767">
        <ele>396.7</ele>
        <time>2021-08-25T08:29:48.358Z</time>
      </trkpt>
      <trkpt lat="45.27289" lon="5.54752">
        <ele>390</ele>
        <time>2021-08-25T08:29:49.216Z</time>
      </trkpt>
      <trkpt lat="45.27288" lon="5.54743">
        <ele>386.4</ele>
        <time>2021-08-25T08:29:49.759Z</time>
      </trkpt>
      <trkpt lat="45.27284" lon="5.54732">
        <ele>383.2</ele>
        <time>2021-08-25T08:29:50.405Z</time>
      </trkpt>
      <trkpt lat="45.27281" lon="5.54719">
        <ele>379.4</ele>
        <time>2021-08-25T08:29:51.171Z</time>
      </trkpt>
      <trkpt lat="45.27278" lon="5.54699">
        <ele>372.9</ele>
        <time>2021-08-25T08:29:52.275Z</time>
      </trkpt>
      <trkpt lat="45.2729" lon="5.5468">
        <ele>362.6</ele>
        <time>2021-08-25T08:29:53.653Z</time>
      </trkpt>
      <trkpt lat="45.27307" lon="5.54693">
        <ele>362.5</ele>
        <time>2021-08-25T08:29:56.157Z</time>
      </trkpt>
      <trkpt lat="45.27316" lon="5.54696">
        <ele>361.2</ele>
        <time>2021-08-25T08:29:56.861Z</time>
      </trkpt>
      <trkpt lat="45.27324" lon="5.54698">
        <ele>359.7</ele>
        <time>2021-08-25T08:29:57.517Z</time>
      </trkpt>
      <trkpt lat="45.27335" lon="5.54706">
        <ele>360.7</ele>
        <time>2021-08-25T08:30:01.344Z</time>
      </trkpt>
      <trkpt lat="45.27344" lon="5.54708">
        <ele>358.6</ele>
        <time>2021-08-25T08:30:02.051Z</time>
      </trkpt>
      <trkpt lat="45.27361" lon="5.5471">
        <ele>354.3</ele>
        <time>2021-08-25T08:30:03.408Z</time>
      </trkpt>
      <trkpt lat="45.2738" lon="5.54715">
        <ele>350.2</ele>
        <time>2021-08-25T08:30:04.882Z</time>
      </trkpt>
      <trkpt lat="45.27399" lon="5.54715">
        <ele>344</ele>
        <time>2021-08-25T08:30:06.396Z</time>
      </trkpt>
      <trkpt lat="45.27408" lon="5.54717">
        <ele>341.8</ele>
        <time>2021-08-25T08:30:07.091Z</time>
      </trkpt>
      <trkpt lat="45.27419" lon="5.54714">
        <ele>337.2</ele>
        <time>2021-08-25T08:30:07.990Z</time>
      </trkpt>
      <trkpt lat="45.27432" lon="5.54706">
        <ele>331</ele>
        <time>2021-08-25T08:30:09.110Z</time>
      </trkpt>
      <trkpt lat="45.27443" lon="5.54692">
        <ele>324.6</ele>
        <time>2021-08-25T08:30:10.227Z</time>
      </trkpt>
      <trkpt lat="45.27456" lon="5.54681">
        <ele>318.6</ele>
        <time>2021-08-25T08:30:11.404Z</time>
      </trkpt>
      <trkpt lat="45.27468" lon="5.54667">
        <ele>312.8</ele>
        <time>2021-08-25T08:30:12.606Z</time>
      </trkpt>
      <trkpt lat="45.27485" lon="5.54649">
        <ele>306.6</ele>
        <time>2021-08-25T08:30:14.250Z</time>
      </trkpt>
      <trkpt lat="45.27503" lon="5.54625">
        <ele>300.5</ele>
        <time>2021-08-25T08:30:16.210Z</time>
      </trkpt>
      <trkpt lat="45.27522" lon="5.54603">
        <ele>295.3</ele>
        <time>2021-08-25T08:30:18.115Z</time>
      </trkpt>
      <trkpt lat="45.27546" lon="5.54582">
        <ele>289.8</ele>
        <time>2021-08-25T08:30:20.302Z</time>
      </trkpt>
      <trkpt lat="45.27553" lon="5.54572">
        <ele>288.3</ele>
        <time>2021-08-25T08:30:21.090Z</time>
      </trkpt>
      <trkpt lat="45.27559" lon="5.54539">
        <ele>286.2</ele>
        <time>2021-08-25T08:30:22.948Z</time>
      </trkpt>
      <trkpt lat="45.27573" lon="5.54512">
        <ele>284</ele>
        <time>2021-08-25T08:30:24.781Z</time>
      </trkpt>
      <trkpt lat="45.276" lon="5.54469">
        <ele>280</ele>
        <time>2021-08-25T08:30:27.954Z</time>
      </trkpt>
      <trkpt lat="45.27616" lon="5.5444">
        <ele>277.2</ele>
        <time>2021-08-25T08:30:29.973Z</time>
      </trkpt>
      <trkpt lat="45.27604" lon="5.54394">
        <ele>274.6</ele>
        <time>2021-08-25T08:30:32.626Z</time>
      </trkpt>
      <trkpt lat="45.27579" lon="5.54348">
        <ele>270.7</ele>
        <time>2021-08-25T08:30:35.856Z</time>
      </trkpt>
      <trkpt lat="45.27569" lon="5.5431">
        <ele>265.8</ele>
        <time>2021-08-25T08:30:38.074Z</time>
      </trkpt>
      <trkpt lat="45.27604" lon="5.54262">
        <ele>252</ele>
        <time>2021-08-25T08:30:41.845Z</time>
      </trkpt>
      <trkpt lat="45.27644" lon="5.5422">
        <ele>242.5</ele>
        <time>2021-08-25T08:30:45.764Z</time>
      </trkpt>
      <trkpt lat="45.27662" lon="5.54191">
        <ele>238.9</ele>
        <time>2021-08-25T08:30:47.859Z</time>
      </trkpt>
      <trkpt lat="45.27684" lon="5.54164">
        <ele>235.9</ele>
        <time>2021-08-25T08:30:50.169Z</time>
      </trkpt>
      <trkpt lat="45.27698" lon="5.54123">
        <ele>232.4</ele>
        <time>2021-08-25T08:30:52.647Z</time>
      </trkpt>
      <trkpt lat="45.27706" lon="5.54067">
        <ele>227.7</ele>
        <time>2021-08-25T08:30:55.802Z</time>
      </trkpt>
      <trkpt lat="45.27727" lon="5.54008">
        <ele>221.6</ele>
        <time>2021-08-25T08:30:59.412Z</time>
      </trkpt>
      <trkpt lat="45.27755" lon="5.5397">
        <ele>216.5</ele>
        <time>2021-08-25T08:31:02.454Z</time>
      </trkpt>
      <trkpt lat="45.2777" lon="5.53947">
        <ele>212.7</ele>
        <time>2021-08-25T08:31:04.145Z</time>
      </trkpt>
      <trkpt lat="45.27774" lon="5.53914">
        <ele>207.9</ele>
        <time>2021-08-25T08:31:06.011Z</time>
      </trkpt>
      <trkpt lat="45.27813" lon="5.53887">
        <ele>204.9</ele>
        <time>2021-08-25T08:31:09.362Z</time>
      </trkpt>
      <trkpt lat="45.27844" lon="5.53908">
        <ele>205.5</ele>
        <time>2021-08-25T08:31:15.211Z</time>
      </trkpt>
      <trkpt lat="45.27874" lon="5.53935">
        <ele>207.9</ele>
        <time>2021-08-25T08:31:25.172Z</time>
      </trkpt>
      <trkpt lat="45.27909" lon="5.53949">
        <ele>208.7</ele>
        <time>2021-08-25T08:31:31.569Z</time>
      </trkpt>
      <trkpt lat="45.27935" lon="5.5395">
        <ele>206.7</ele>
        <time>2021-08-25T08:31:33.576Z</time>
      </trkpt>
      <trkpt lat="45.27949" lon="5.53924">
        <ele>202.6</ele>
        <time>2021-08-25T08:31:35.373Z</time>
      </trkpt>
      <trkpt lat="45.27965" lon="5.53913">
        <ele>200.3</ele>
        <time>2021-08-25T08:31:36.744Z</time>
      </trkpt>
      <trkpt lat="45.27975" lon="5.53912">
        <ele>199.3</ele>
        <time>2021-08-25T08:31:37.544Z</time>
      </trkpt>
      <trkpt lat="45.27982" lon="5.53904">
        <ele>198.4</ele>
        <time>2021-08-25T08:31:38.280Z</time>
      </trkpt>
      <trkpt lat="45.27995" lon="5.53894">
        <ele>197.1</ele>
        <time>2021-08-25T08:31:39.414Z</time>
      </trkpt>
      <trkpt lat="45.28013" lon="5.53869">
        <ele>195.8</ele>
        <time>2021-08-25T08:31:41.436Z</time>
      </trkpt>
      <trkpt lat="45.28031" lon="5.53838">
        <ele>194.9</ele>
        <time>2021-08-25T08:31:44.196Z</time>
      </trkpt>
      <trkpt lat="45.28057" lon="5.53802">
        <ele>193.7</ele>
        <time>2021-08-25T08:31:47.663Z</time>
      </trkpt>
      <trkpt lat="45.28078" lon="5.53772">
        <ele>192.5</ele>
        <time>2021-08-25T08:31:50.329Z</time>
      </trkpt>
      <trkpt lat="45.28098" lon="5.53739">
        <ele>191.1</ele>
        <time>2021-08-25T08:31:52.941Z</time>
      </trkpt>
      <trkpt lat="45.28121" lon="5.53707">
        <ele>189.6</ele>
        <time>2021-08-25T08:31:55.653Z</time>
      </trkpt>
      <trkpt lat="45.28147" lon="5.53671">
        <ele>188.5</ele>
        <time>2021-08-25T08:31:59.283Z</time>
      </trkpt>
      <trkpt lat="45.28166" lon="5.5364">
        <ele>187.4</ele>
        <time>2021-08-25T08:32:01.816Z</time>
      </trkpt>
      <trkpt lat="45.28184" lon="5.53612">
        <ele>186.5</ele>
        <time>2021-08-25T08:32:04.369Z</time>
      </trkpt>
      <trkpt lat="45.28202" lon="5.53583">
        <ele>185.6</ele>
        <time>2021-08-25T08:32:06.957Z</time>
      </trkpt>
      <trkpt lat="45.28222" lon="5.53549">
        <ele>184.9</ele>
        <time>2021-08-25T08:32:10.407Z</time>
      </trkpt>
      <trkpt lat="45.2824" lon="5.5352">
        <ele>184.4</ele>
        <time>2021-08-25T08:32:13.469Z</time>
      </trkpt>
      <trkpt lat="45.28259" lon="5.53491">
        <ele>184.2</ele>
        <time>2021-08-25T08:32:17.029Z</time>
      </trkpt>
      <trkpt lat="45.28276" lon="5.53464">
        <ele>185</ele>
        <time>2021-08-25T08:32:22.076Z</time>
      </trkpt>
      <trkpt lat="45.28297" lon="5.5343">
        <ele>186.4</ele>
        <time>2021-08-25T08:32:29.616Z</time>
      </trkpt>
      <trkpt lat="45.28313" lon="5.53405">
        <ele>187.5</ele>
        <time>2021-08-25T08:32:35.387Z</time>
      </trkpt>
      <trkpt lat="45.28333" lon="5.53373">
        <ele>188.5</ele>
        <time>2021-08-25T08:32:41.473Z</time>
      </trkpt>
      <trkpt lat="45.28349" lon="5.53347">
        <ele>188</ele>
        <time>2021-08-25T08:32:44.197Z</time>
      </trkpt>
      <trkpt lat="45.28369" lon="5.53314">
        <ele>186.8</ele>
        <time>2021-08-25T08:32:46.983Z</time>
      </trkpt>
      <trkpt lat="45.28384" lon="5.53287">
        <ele>186</ele>
        <time>2021-08-25T08:32:49.252Z</time>
      </trkpt>
      <trkpt lat="45.284" lon="5.53254">
        <ele>185</ele>
        <time>2021-08-25T08:32:51.878Z</time>
      </trkpt>
      <trkpt lat="45.28417" lon="5.53219">
        <ele>184.4</ele>
        <time>2021-08-25T08:32:55.156Z</time>
      </trkpt>
      <trkpt lat="45.28432" lon="5.53183">
        <ele>184.7</ele>
        <time>2021-08-25T08:32:59.766Z</time>
      </trkpt>
      <trkpt lat="45.28445" lon="5.53154">
        <ele>184.9</ele>
        <time>2021-08-25T08:33:03.458Z</time>
      </trkpt>
      <trkpt lat="45.28458" lon="5.53117">
        <ele>185.4</ele>
        <time>2021-08-25T08:33:08.411Z</time>
      </trkpt>
      <trkpt lat="45.28472" lon="5.53079">
        <ele>186</ele>
        <time>2021-08-25T08:33:13.650Z</time>
      </trkpt>
      <trkpt lat="45.28498" lon="5.531">
        <ele>185.6</ele>
        <time>2021-08-25T08:33:17.311Z</time>
      </trkpt>
      <trkpt lat="45.28487" lon="5.53122">
        <ele>185.1</ele>
        <time>2021-08-25T08:33:19.292Z</time>
      </trkpt>
      <trkpt lat="45.2847" lon="5.53148">
        <ele>184.7</ele>
        <time>2021-08-25T08:33:22.248Z</time>
      </trkpt>
      <trkpt lat="45.28468" lon="5.53195">
        <ele>184.7</ele>
        <time>2021-08-25T08:33:26.922Z</time>
      </trkpt>
      <trkpt lat="45.28478" lon="5.53241">
        <ele>185.3</ele>
        <time>2021-08-25T08:33:32.629Z</time>
      </trkpt>
      <trkpt lat="45.28493" lon="5.53266">
        <ele>185.8</ele>
        <time>2021-08-25T08:33:36.769Z</time>
      </trkpt>
      <trkpt lat="45.28519" lon="5.53292">
        <ele>186.1</ele>
        <time>2021-08-25T08:33:41.569Z</time>
      </trkpt>
      <trkpt lat="45.28537" lon="5.5331">
        <ele>186.1</ele>
        <time>2021-08-25T08:33:44.765Z</time>
      </trkpt>
      <trkpt lat="45.28555" lon="5.53303">
        <ele>186.2</ele>
        <time>2021-08-25T08:33:47.508Z</time>
      </trkpt>
      <trkpt lat="45.28579" lon="5.53278">
        <ele>186.6</ele>
        <time>2021-08-25T08:33:52.249Z</time>
      </trkpt>
      <trkpt lat="45.28598" lon="5.53259">
        <ele>186.9</ele>
        <time>2021-08-25T08:33:56.031Z</time>
      </trkpt>
      <trkpt lat="45.2862" lon="5.53243">
        <ele>186.7</ele>
        <time>2021-08-25T08:33:59.145Z</time>
      </trkpt>
      <trkpt lat="45.28644" lon="5.53262">
        <ele>187.1</ele>
        <time>2021-08-25T08:34:03.635Z</time>
      </trkpt>
      <trkpt lat="45.2866" lon="5.53288">
        <ele>187.4</ele>
        <time>2021-08-25T08:34:07.509Z</time>
      </trkpt>
      <trkpt lat="45.28667" lon="5.53321">
        <ele>187.9</ele>
        <time>2021-08-25T08:34:11.771Z</time>
      </trkpt>
      <trkpt lat="45.28685" lon="5.53357">
        <ele>188.6</ele>
        <time>2021-08-25T08:34:17.261Z</time>
      </trkpt>
      <trkpt lat="45.28701" lon="5.53383">
        <ele>188.7</ele>
        <time>2021-08-25T08:34:20.899Z</time>
      </trkpt>
      <trkpt lat="45.28727" lon="5.53411">
        <ele>188.2</ele>
        <time>2021-08-25T08:34:24.717Z</time>
      </trkpt>
      <trkpt lat="45.28747" lon="5.53429">
        <ele>188.2</ele>
        <time>2021-08-25T08:34:28.015Z</time>
      </trkpt>
      <trkpt lat="45.28773" lon="5.53454">
        <ele>189.8</ele>
        <time>2021-08-25T08:34:35.890Z</time>
      </trkpt>
      <trkpt lat="45.28795" lon="5.53473">
        <ele>190.6</ele>
        <time>2021-08-25T08:34:40.923Z</time>
      </trkpt>
      <trkpt lat="45.28814" lon="5.53488">
        <ele>191</ele>
        <time>2021-08-25T08:34:44.709Z</time>
      </trkpt>
      <trkpt lat="45.28839" lon="5.53496">
        <ele>191.3</ele>
        <time>2021-08-25T08:34:48.688Z</time>
      </trkpt>
      <trkpt lat="45.28864" lon="5.53502">
        <ele>191.7</ele>
        <time>2021-08-25T08:34:52.924Z</time>
      </trkpt>
      <trkpt lat="45.28889" lon="5.53509">
        <ele>191.8</ele>
        <time>2021-08-25T08:34:56.620Z</time>
      </trkpt>
      <trkpt lat="45.28919" lon="5.53519">
        <ele>191.5</ele>
        <time>2021-08-25T08:35:00.474Z</time>
      </trkpt>
      <trkpt lat="45.28941" lon="5.53535">
        <ele>191.2</ele>
        <time>2021-08-25T08:35:03.483Z</time>
      </trkpt>
      <trkpt lat="45.28963" lon="5.53565">
        <ele>190.1</ele>
        <time>2021-08-25T08:35:06.409Z</time>
      </trkpt>
      <trkpt lat="45.28972" lon="5.53598">
        <ele>189.3</ele>
        <time>2021-08-25T08:35:08.730Z</time>
      </trkpt>
      <trkpt lat="45.28964" lon="5.53643">
        <ele>189</ele>
        <time>2021-08-25T08:35:12.892Z</time>
      </trkpt>
      <trkpt lat="45.28952" lon="5.53678">
        <ele>188.5</ele>
        <time>2021-08-25T08:35:15.974Z</time>
      </trkpt>
      <trkpt lat="45.28964" lon="5.53706">
        <ele>190.6</ele>
        <time>2021-08-25T08:35:23.760Z</time>
      </trkpt>
      <trkpt lat="45.28988" lon="5.53732">
        <ele>193.4</ele>
        <time>2021-08-25T08:35:34.137Z</time>
      </trkpt>
      <trkpt lat="45.29004" lon="5.53765">
        <ele>194.9</ele>
        <time>2021-08-25T08:35:41.283Z</time>
      </trkpt>
      <trkpt lat="45.29022" lon="5.53803">
        <ele>194.7</ele>
        <time>2021-08-25T08:35:45.432Z</time>
      </trkpt>
      <trkpt lat="45.29035" lon="5.53831">
        <ele>194.1</ele>
        <time>2021-08-25T08:35:47.924Z</time>
      </trkpt>
      <trkpt lat="45.2906" lon="5.53858">
        <ele>192.3</ele>
        <time>2021-08-25T08:35:50.347Z</time>
      </trkpt>
      <trkpt lat="45.29075" lon="5.53881">
        <ele>190.6</ele>
        <time>2021-08-25T08:35:52.060Z</time>
      </trkpt>
      <trkpt lat="45.29092" lon="5.53914">
        <ele>188.1</ele>
        <time>2021-08-25T08:35:54.288Z</time>
      </trkpt>
      <trkpt lat="45.291" lon="5.53945">
        <ele>187</ele>
        <time>2021-08-25T08:35:56.280Z</time>
      </trkpt>
      <trkpt lat="45.29105" lon="5.53976">
        <ele>186.3</ele>
        <time>2021-08-25T08:35:58.396Z</time>
      </trkpt>
      <trkpt lat="45.29111" lon="5.54017">
        <ele>186.6</ele>
        <time>2021-08-25T08:36:03.046Z</time>
      </trkpt>
      <trkpt lat="45.29114" lon="5.54051">
        <ele>188</ele>
        <time>2021-08-25T08:36:09.365Z</time>
      </trkpt>
      <trkpt lat="45.29117" lon="5.54083">
        <ele>189.2</ele>
        <time>2021-08-25T08:36:15.005Z</time>
      </trkpt>
      <trkpt lat="45.29114" lon="5.54128">
        <ele>189.2</ele>
        <time>2021-08-25T08:36:19.567Z</time>
      </trkpt>
      <trkpt lat="45.29113" lon="5.54181">
        <ele>188.8</ele>
        <time>2021-08-25T08:36:24.156Z</time>
      </trkpt>
      <trkpt lat="45.29111" lon="5.54215">
        <ele>187.6</ele>
        <time>2021-08-25T08:36:26.174Z</time>
      </trkpt>
      <trkpt lat="45.291" lon="5.54249">
        <ele>186.6</ele>
        <time>2021-08-25T08:36:28.482Z</time>
      </trkpt>
      <trkpt lat="45.29075" lon="5.5428">
        <ele>187</ele>
        <time>2021-08-25T08:36:33.769Z</time>
      </trkpt>
      <trkpt lat="45.29061" lon="5.54306">
        <ele>187.3</ele>
        <time>2021-08-25T08:36:37.524Z</time>
      </trkpt>
      <trkpt lat="45.29035" lon="5.54331">
        <ele>188.1</ele>
        <time>2021-08-25T08:36:43.340Z</time>
      </trkpt>
      <trkpt lat="45.29011" lon="5.54344">
        <ele>188.7</ele>
        <time>2021-08-25T08:36:47.956Z</time>
      </trkpt>
      <trkpt lat="45.28992" lon="5.54368">
        <ele>188.6</ele>
        <time>2021-08-25T08:36:51.250Z</time>
      </trkpt>
      <trkpt lat="45.29004" lon="5.54404">
        <ele>188.2</ele>
        <time>2021-08-25T08:36:54.530Z</time>
      </trkpt>
      <trkpt lat="45.29014" lon="5.54433">
        <ele>188.1</ele>
        <time>2021-08-25T08:36:57.590Z</time>
      </trkpt>
      <trkpt lat="45.2903" lon="5.54471">
        <ele>188.1</ele>
        <time>2021-08-25T08:37:02.009Z</time>
      </trkpt>
      <trkpt lat="45.29045" lon="5.54509">
        <ele>187.8</ele>
        <time>2021-08-25T08:37:05.831Z</time>
      </trkpt>
      <trkpt lat="45.2905" lon="5.54544">
        <ele>187</ele>
        <time>2021-08-25T08:37:08.248Z</time>
      </trkpt>
      <trkpt lat="45.29052" lon="5.54578">
        <ele>186.1</ele>
        <time>2021-08-25T08:37:10.444Z</time>
      </trkpt>
      <trkpt lat="45.29051" lon="5.54612">
        <ele>185.9</ele>
        <time>2021-08-25T08:37:13.569Z</time>
      </trkpt>
      <trkpt lat="45.29052" lon="5.54654">
        <ele>185.7</ele>
        <time>2021-08-25T08:37:17.350Z</time>
      </trkpt>
      <trkpt lat="45.29057" lon="5.54696">
        <ele>185.6</ele>
        <time>2021-08-25T08:37:21.398Z</time>
      </trkpt>
      <trkpt lat="45.29055" lon="5.5473">
        <ele>185.4</ele>
        <time>2021-08-25T08:37:24.434Z</time>
      </trkpt>
      <trkpt lat="45.29045" lon="5.54762">
        <ele>185.2</ele>
        <time>2021-08-25T08:37:27.636Z</time>
      </trkpt>
      <trkpt lat="45.2903" lon="5.54799">
        <ele>184.9</ele>
        <time>2021-08-25T08:37:31.399Z</time>
      </trkpt>
      <trkpt lat="45.29011" lon="5.5482">
        <ele>184.4</ele>
        <time>2021-08-25T08:37:34.096Z</time>
      </trkpt>
      <trkpt lat="45.28985" lon="5.54846">
        <ele>184.5</ele>
        <time>2021-08-25T08:37:38.700Z</time>
      </trkpt>
      <trkpt lat="45.28968" lon="5.5487">
        <ele>185.4</ele>
        <time>2021-08-25T08:37:43.893Z</time>
      </trkpt>
      <trkpt lat="45.28945" lon="5.54897">
        <ele>186.6</ele>
        <time>2021-08-25T08:37:50.580Z</time>
      </trkpt>
      <trkpt lat="45.28923" lon="5.54923">
        <ele>187.9</ele>
        <time>2021-08-25T08:37:57.429Z</time>
      </trkpt>
      <trkpt lat="45.28913" lon="5.54958">
        <ele>188.9</ele>
        <time>2021-08-25T08:38:03.121Z</time>
      </trkpt>
      <trkpt lat="45.28905" lon="5.54998">
        <ele>189.7</ele>
        <time>2021-08-25T08:38:08.640Z</time>
      </trkpt>
      <trkpt lat="45.28893" lon="5.55031">
        <ele>188.9</ele>
        <time>2021-08-25T08:38:11.238Z</time>
      </trkpt>
      <trkpt lat="45.28883" lon="5.55064">
        <ele>188.3</ele>
        <time>2021-08-25T08:38:13.936Z</time>
      </trkpt>
      <trkpt lat="45.28869" lon="5.55093">
        <ele>187.9</ele>
        <time>2021-08-25T08:38:16.796Z</time>
      </trkpt>
      <trkpt lat="45.28854" lon="5.5513">
        <ele>187.4</ele>
        <time>2021-08-25T08:38:20.235Z</time>
      </trkpt>
      <trkpt lat="45.28842" lon="5.55161">
        <ele>187.1</ele>
        <time>2021-08-25T08:38:23.285Z</time>
      </trkpt>
      <trkpt lat="45.28835" lon="5.55193">
        <ele>186.4</ele>
        <time>2021-08-25T08:38:25.578Z</time>
      </trkpt>
      <trkpt lat="45.28826" lon="5.55227">
        <ele>185.5</ele>
        <time>2021-08-25T08:38:27.990Z</time>
      </trkpt>
      <trkpt lat="45.28813" lon="5.55258">
        <ele>184.9</ele>
        <time>2021-08-25T08:38:30.714Z</time>
      </trkpt>
      <trkpt lat="45.28802" lon="5.55283">
        <ele>184.6</ele>
        <time>2021-08-25T08:38:33.172Z</time>
      </trkpt>
      <trkpt lat="45.28806" lon="5.55314">
        <ele>184.2</ele>
        <time>2021-08-25T08:38:35.688Z</time>
      </trkpt>
      <trkpt lat="45.28815" lon="5.55346">
        <ele>184</ele>
        <time>2021-08-25T08:38:38.727Z</time>
      </trkpt>
      <trkpt lat="45.28827" lon="5.55386">
        <ele>183.5</ele>
        <time>2021-08-25T08:38:42.314Z</time>
      </trkpt>
      <trkpt lat="45.28836" lon="5.55417">
        <ele>183.1</ele>
        <time>2021-08-25T08:38:45.048Z</time>
      </trkpt>
      <trkpt lat="45.28846" lon="5.55456">
        <ele>184.3</ele>
        <time>2021-08-25T08:38:51.667Z</time>
      </trkpt>
      <trkpt lat="45.28855" lon="5.55487">
        <ele>185.2</ele>
        <time>2021-08-25T08:38:56.754Z</time>
      </trkpt>
      <trkpt lat="45.28862" lon="5.55521">
        <ele>186.4</ele>
        <time>2021-08-25T08:39:02.873Z</time>
      </trkpt>
      <trkpt lat="45.28845" lon="5.55541">
        <ele>186.7</ele>
        <time>2021-08-25T08:39:06.464Z</time>
      </trkpt>
      <trkpt lat="45.28827" lon="5.5556">
        <ele>187.3</ele>
        <time>2021-08-25T08:39:10.679Z</time>
      </trkpt>
      <trkpt lat="45.28815" lon="5.55574">
        <ele>187.9</ele>
        <time>2021-08-25T08:39:14.123Z</time>
      </trkpt>
      <trkpt lat="45.28815" lon="5.55594">
        <ele>188.1</ele>
        <time>2021-08-25T08:39:16.357Z</time>
      </trkpt>
      <trkpt lat="45.28815" lon="5.55614">
        <ele>187.9</ele>
        <time>2021-08-25T08:39:18.096Z</time>
      </trkpt>
      <trkpt lat="45.28803" lon="5.5562">
        <ele>188.1</ele>
        <time>2021-08-25T08:39:20.174Z</time>
      </trkpt>
      <trkpt lat="45.28786" lon="5.55623">
        <ele>188.4</ele>
        <time>2021-08-25T08:39:23.103Z</time>
      </trkpt>
      <trkpt lat="45.28774" lon="5.55631">
        <ele>188.6</ele>
        <time>2021-08-25T08:39:25.293Z</time>
      </trkpt>
      <trkpt lat="45.28757" lon="5.55647">
        <ele>188.8</ele>
        <time>2021-08-25T08:39:28.417Z</time>
      </trkpt>
      <trkpt lat="45.28752" lon="5.55666">
        <ele>189</ele>
        <time>2021-08-25T08:39:30.744Z</time>
      </trkpt>
      <trkpt lat="45.28753" lon="5.5568">
        <ele>188.9</ele>
        <time>2021-08-25T08:39:31.987Z</time>
      </trkpt>
      <trkpt lat="45.28754" lon="5.55688">
        <ele>188.9</ele>
        <time>2021-08-25T08:39:32.790Z</time>
      </trkpt>
      <trkpt lat="45.28756" lon="5.557">
        <ele>188.9</ele>
        <time>2021-08-25T08:39:34.008Z</time>
      </trkpt>
      <trkpt lat="45.28755" lon="5.55705">
        <ele>188.9</ele>
        <time>2021-08-25T08:39:34.598Z</time>
      </trkpt>
      <trkpt lat="45.2875" lon="5.55708">
        <ele>189</ele>
        <time>2021-08-25T08:39:35.532Z</time>
      </trkpt>
      <trkpt lat="45.28745" lon="5.55684">
        <ele>188.9</ele>
        <time>2021-08-25T08:39:37.799Z</time>
      </trkpt>
    </trkseg>
  </trk>
</gpx>